Observation data for Fritch on 01/19/2019      Previous  Date  Next       Current Mesonet Observations  Soil Data  Daily Summary Page  Observations in Plain Language
KFR1 190600Z 00016G22KT 00/M03 A3009 RMK A01 T00011027  RH  082%=      5-min Rain = 0
KFR1 190601Z 35021G28KT 00/M03 A3009 RMK A01 T00011027  RH  082%=      5-min Rain = 0
KFR1 190602Z 36023G29KT 00/M03 A3009 RMK A01 T00011028  RH  081%=      5-min Rain = 0
KFR1 190603Z 00021G27KT 00/03 A3009 RMK A01 T00000-29  RH  080%=      5-min Rain = 0
KFR1 190604Z 01019G28KT M00/M03 A3009 RMK A01 T10011031  RH  080%=      5-min Rain = 0
KFR1 190605Z 00023G31KT M00/M03 A3009 RMK A01 T10011030  RH  081%=      5-min Rain = 0
KFR1 190606Z 01025G31KT M00/M03 A3008 RMK A01 T10011031  RH  080%=      5-min Rain = 0
KFR1 190607Z 02021G31KT M00/M03 A3008 RMK A01 T10011032  RH  080%=      5-min Rain = 0
KFR1 190608Z 01022G28KT M00/M03 A3008 RMK A01 T10011033  RH  080%=      5-min Rain = 0
KFR1 190609Z 01022G29KT M00/M03 A3009 RMK A01 T10011033  RH  080%=      5-min Rain = 0
KFR1 190610Z 00023G28KT M00/M03 A3009 RMK A01 T10021031  RH  080%=      5-min Rain = 0
KFR1 190611Z 00020KT M00/M03 A3009 RMK A01 T10011032  RH  080%=      5-min Rain = 0
KFR1 190612Z 00022G28KT M00/M03 A3009 RMK A01 T10021032  RH  080%=      5-min Rain = 0
KFR1 190613Z 36024G30KT M00/M03 A3009 RMK A01 T10011033  RH  080%=      5-min Rain = 0
KFR1 190614Z 01022G28KT M00/M03 A3009 RMK A01 T10021034  RH  079%=      5-min Rain = 0
KFR1 190615Z 35018G24KT M00/M03 A301 RMK A01 T10021033  RH  079%=      5-min Rain = 0
KFR1 190616Z 36017G22KT M00/M03 A301 RMK A01 T10021033  RH  080%=      5-min Rain = 0
KFR1 190617Z 36015G21KT M00/M03 A301 RMK A01 T10021032  RH  081%=      5-min Rain = 0
KFR1 190618Z 00017KT M00/M03 A301 RMK A01 T10021032  RH  080%=      5-min Rain = 0
KFR1 190619Z 36018G23KT M00/M03 A301 RMK A01 T10031033  RH  080%=      5-min Rain = 0
KFR1 190620Z 36020G27KT M00/M03 A301 RMK A01 T10031033  RH  080%=      5-min Rain = 0
KFR1 190621Z 36019G24KT M00/M03 A301 RMK A01 T10031033  RH  080%=      5-min Rain = 0
KFR1 190622Z 36019KT M00/M03 A301 RMK A01 T10041034  RH  080%=      5-min Rain = 0
KFR1 190623Z 36015G21KT M00/M03 A301 RMK A01 T10041034  RH  080%=      5-min Rain = 0
KFR1 190624Z 36016G22KT M00/M03 A301 RMK A01 T10041034  RH  081%=      5-min Rain = 0
KFR1 190625Z 01019KT M01/M03 A301 RMK A01 T10051034  RH  081%=      5-min Rain = 0
KFR1 190626Z 00016G21KT M01/M04 A301 RMK A01 T10061035  RH  080%=      5-min Rain = 0
KFR1 190627Z 00016G24KT M01/M04 A301 RMK A01 T10061035  RH  081%=      5-min Rain = 0
KFR1 190628Z 00014G19KT M01/M04 A301 RMK A01 T10051035  RH  081%=      5-min Rain = 0
KFR1 190629Z 00017KT M01/M03 A301 RMK A01 T10051034  RH  081%=      5-min Rain = 0
KFR1 190630Z 35014G19KT M01/M04 A301 RMK A01 T10061035  RH  081%=      5-min Rain = 0
KFR1 190631Z 00017G23KT M01/M04 A3011 RMK A01 T10061035  RH  081%=      5-min Rain = 0
KFR1 190632Z 00018G24KT M01/M04 A3011 RMK A01 T10061035  RH  081%=      5-min Rain = 0
KFR1 190633Z 01019KT M01/M04 A301 RMK A01 T10061036  RH  080%=      5-min Rain = 0
KFR1 190634Z 00017G24KT M01/M04 A3011 RMK A01 T10071037  RH  080%=      5-min Rain = 0
KFR1 190635Z 00018G24KT M01/M04 A3011 RMK A01 T10071037  RH  080%=      5-min Rain = 0
KFR1 190636Z 00016KT M01/M04 A3011 RMK A01 T10071037  RH  080%=      5-min Rain = 0
KFR1 190637Z 00016G22KT M01/M04 A3011 RMK A01 T10071036  RH  081%=      5-min Rain = 0
KFR1 190638Z 36017KT M01/M04 A3011 RMK A01 T10071036  RH  081%=      5-min Rain = 0
KFR1 190639Z 35015KT M01/M04 A3011 RMK A01 T10081037  RH  081%=      5-min Rain = 0
KFR1 190640Z 01016KT M01/M04 A3011 RMK A01 T10081037  RH  081%=      5-min Rain = 0
KFR1 190641Z 00015KT M01/M04 A3011 RMK A01 T10081037  RH  081%=      5-min Rain = 0
KFR1 190642Z 36015KT M01/M04 A3011 RMK A01 T10081036  RH  081%=      5-min Rain = 0
KFR1 190643Z 00016G24KT M01/M04 A3011 RMK A01 T10081036  RH  081%=      5-min Rain = 0
KFR1 190644Z 36019G25KT M01/M04 A3012 RMK A01 T10081036  RH  081%=      5-min Rain = 0
KFR1 190645Z 00015KT M01/M04 A3012 RMK A01 T10081037  RH  081%=      5-min Rain = 0
KFR1 190646Z 00017KT M01/M04 A3012 RMK A01 T10081037  RH  081%=      5-min Rain = 0
KFR1 190647Z 00017G22KT M01/M04 A3012 RMK A01 T10081037  RH  081%=      5-min Rain = 0
KFR1 190648Z 00016G22KT M01/M04 A3012 RMK A01 T10081038  RH  080%=      5-min Rain = 0
KFR1 190649Z 36017G22KT M01/M04 A3012 RMK A01 T10081038  RH  080%=      5-min Rain = 0
KFR1 190650Z 00016G22KT M01/M04 A3012 RMK A01 T10081039  RH  080%=      5-min Rain = 0
KFR1 190651Z 01017G22KT M01/M04 A3012 RMK A01 T10081039  RH  080%=      5-min Rain = 0
KFR1 190652Z 01016G21KT M01/M04 A3012 RMK A01 T10081039  RH  080%=      5-min Rain = 0
KFR1 190653Z 01020G25KT M01/M04 A3012 RMK A01 T10081039  RH  080%=      5-min Rain = 0
KFR1 190654Z 02017G27KT M01/M04 A3012 RMK A01 T10091041  RH  078%=      5-min Rain = 0
KFR1 190655Z 01019G27KT M01/M04 A3012 RMK A01 T10091042  RH  078%=      5-min Rain = 0
KFR1 190656Z 01019G25KT M01/M04 A3012 RMK A01 T10091043  RH  077%=      5-min Rain = 0
KFR1 190657Z 01026G33KT M01/M05 A3011 RMK A01 T10091045  RH  077%=      5-min Rain = 0
KFR1 190658Z 01021G27KT M01/M05 A3011 RMK A01 T10101047  RH  076%=      5-min Rain = 0
KFR1 190659Z 01021G26KT M01/M05 A3011 RMK A01 T10101047  RH  076%=      5-min Rain = 0
KFR1 190700Z 01021G27KT M01/M05 A3012 RMK A01 T10101047  RH  076%=      5-min Rain = 0
KFR1 190701Z 01020G25KT M01/M05 A3011 RMK A01 T10111046  RH  077%=      5-min Rain = 0
KFR1 190702Z 01018KT M01/M05 A3012 RMK A01 T10111046  RH  077%=      5-min Rain = 0
KFR1 190703Z 02018G23KT M01/M05 A3012 RMK A01 T10111046  RH  077%=      5-min Rain = 0
KFR1 190704Z 01019G26KT M01/M05 A3012 RMK A01 T10111047  RH  077%=      5-min Rain = 0
KFR1 190705Z 01018G23KT M01/M05 A3012 RMK A01 T10111046  RH  077%=      5-min Rain = 0
KFR1 190706Z 02018G25KT M01/M04 A3012 RMK A01 T10121044  RH  078%=      5-min Rain = 0
KFR1 190707Z 01017G24KT M01/M05 A3012 RMK A01 T10121045  RH  078%=      5-min Rain = 0
KFR1 190708Z 01018G23KT M01/M04 A3012 RMK A01 T10121044  RH  078%=      5-min Rain = 0
KFR1 190709Z 01020KT M01/M04 A3012 RMK A01 T10111044  RH  078%=      5-min Rain = 0
KFR1 190710Z 00021G27KT M01/M05 A3012 RMK A01 T10121045  RH  078%=      5-min Rain = 0
KFR1 190711Z 01018KT M01/M05 A3012 RMK A01 T10121047  RH  078%=      5-min Rain = 0
KFR1 190712Z 00021KT M01/M05 A3012 RMK A01 T10131046  RH  078%=      5-min Rain = 0
KFR1 190713Z 01015KT M01/M05 A3012 RMK A01 T10131046  RH  078%=      5-min Rain = 0
KFR1 190714Z 00013G21KT M01/M05 A3012 RMK A01 T10131046  RH  079%=      5-min Rain = 0
KFR1 190715Z 01016G22KT M01/M04 A3012 RMK A01 T10131044  RH  079%=      5-min Rain = 0
KFR1 190716Z 01014KT M01/M04 A3012 RMK A01 T10131044  RH  079%=      5-min Rain = 0
KFR1 190717Z 01014KT M01/M05 A3012 RMK A01 T10131045  RH  079%=      5-min Rain = 0
KFR1 190718Z 01012KT M01/M04 A3012 RMK A01 T10131044  RH  080%=      5-min Rain = 0
KFR1 190719Z 01013KT M01/M04 A3012 RMK A01 T10131043  RH  080%=      5-min Rain = 0
KFR1 190720Z 02015G20KT M01/M04 A3012 RMK A01 T10131043  RH  080%=      5-min Rain = 0
KFR1 190721Z 01015G20KT M01/M05 A3012 RMK A01 T10141045  RH  080%=      5-min Rain = 0
KFR1 190722Z 02016KT M02/M05 A3012 RMK A01 T10151046  RH  079%=      5-min Rain = 0
KFR1 190723Z 02016KT M02/M05 A3012 RMK A01 T10151046  RH  079%=      5-min Rain = 0
KFR1 190724Z 01019G24KT M02/M05 A3012 RMK A01 T10161047  RH  079%=      5-min Rain = 0
KFR1 190725Z 01017KT M02/M05 A3012 RMK A01 T10161047  RH  079%=      5-min Rain = 0
KFR1 190726Z 01016G21KT M02/M05 A3012 RMK A01 T10161047  RH  079%=      5-min Rain = 0
KFR1 190727Z 02012G18KT M02/M05 A3012 RMK A01 T10171047  RH  080%=      5-min Rain = 0
KFR1 190728Z 02016KT M02/M05 A3012 RMK A01 T10171046  RH  080%=      5-min Rain = 0
KFR1 190729Z 01016KT M02/M05 A3012 RMK A01 T10171046  RH  080%=      5-min Rain = 0
KFR1 190730Z 02015G21KT M02/M05 A3012 RMK A01 T10161047  RH  080%=      5-min Rain = 0
KFR1 190731Z 02015G20KT M02/M05 A3012 RMK A01 T10171046  RH  080%=      5-min Rain = 0
KFR1 190732Z 02016G21KT M02/M05 A3012 RMK A01 T10171046  RH  080%=      5-min Rain = 0
KFR1 190733Z 01017KT M02/M05 A3012 RMK A01 T10171047  RH  080%=      5-min Rain = 0
KFR1 190734Z 01016KT M02/M05 A3013 RMK A01 T10171047  RH  080%=      5-min Rain = 0
KFR1 190735Z 01013G19KT M02/M05 A3013 RMK A01 T10171048  RH  080%=      5-min Rain = 0
KFR1 190736Z 00014G19KT M02/M05 A3013 RMK A01 T10171047  RH  080%=      5-min Rain = 0
KFR1 190737Z 01016KT M02/M05 A3013 RMK A01 T10171047  RH  080%=      5-min Rain = 0
KFR1 190738Z 01013G18KT M02/M05 A3013 RMK A01 T10171048  RH  080%=      5-min Rain = 0
KFR1 190739Z 01013KT M02/M05 A3013 RMK A01 T10181047  RH  080%=      5-min Rain = 0
KFR1 190740Z 01015KT M02/M05 A3014 RMK A01 T10171047  RH  080%=      5-min Rain = 0
KFR1 190741Z 02016KT M02/M05 A3014 RMK A01 T10171046  RH  081%=      5-min Rain = 0
KFR1 190742Z 01013KT M02/M05 A3014 RMK A01 T10181047  RH  080%=      5-min Rain = 0
KFR1 190743Z 01011KT M02/M05 A3014 RMK A01 T10181047  RH  080%=      5-min Rain = 0
KFR1 190744Z 02011KT M02/M05 A3014 RMK A01 T10181046  RH  081%=      5-min Rain = 0
KFR1 190745Z 00013KT M02/M05 A3014 RMK A01 T10171046  RH  081%=      5-min Rain = 0
KFR1 190746Z 03011G17KT M02/M05 A3014 RMK A01 T10181047  RH  080%=      5-min Rain = 0
KFR1 190747Z 02009G14KT M02/M05 A3014 RMK A01 T10181047  RH  080%=      5-min Rain = 0
KFR1 190748Z 01011G16KT M02/M05 A3014 RMK A01 T10181048  RH  080%=      5-min Rain = 0
KFR1 190749Z 02009KT M02/M05 A3014 RMK A01 T10181047  RH  081%=      5-min Rain = 0
KFR1 190750Z 01013KT M02/M05 A3015 RMK A01 T10181047  RH  081%=      5-min Rain = 0
KFR1 190751Z 01013KT M02/M05 A3015 RMK A01 T10181047  RH  081%=      5-min Rain = 0
KFR1 190752Z 02013KT M02/M05 A3015 RMK A01 T10181046  RH  081%=      5-min Rain = 0
KFR1 190753Z 02010KT M02/M05 A3015 RMK A01 T10181047  RH  081%=      5-min Rain = 0
KFR1 190754Z 00009KT M02/M05 A3015 RMK A01 T10181046  RH  081%=      5-min Rain = 0
KFR1 190755Z 01011KT M02/M05 A3015 RMK A01 T10181046  RH  081%=      5-min Rain = 0
KFR1 190756Z 02013KT M02/M05 A3015 RMK A01 T10181045  RH  082%=      5-min Rain = 0
KFR1 190757Z 00013KT M02/M05 A3015 RMK A01 T10171045  RH  082%=      5-min Rain = 0
KFR1 190758Z 01011KT M02/M04 A3016 RMK A01 T10171044  RH  082%=      5-min Rain = 0
KFR1 190759Z 01010KT M02/M04 A3015 RMK A01 T10171044  RH  082%=      5-min Rain = 0
KFR1 190800Z 01014KT M02/M05 A3015 RMK A01 T10171045  RH  081%=      5-min Rain = 0
KFR1 190801Z 01016G22KT M02/M05 A3015 RMK A01 T10171047  RH  080%=      5-min Rain = 0
KFR1 190802Z 02013KT M02/M05 A3015 RMK A01 T10171047  RH  080%=      5-min Rain = 0
KFR1 190803Z 00011KT M02/M05 A3016 RMK A01 T10171047  RH  080%=      5-min Rain = 0
KFR1 190804Z 00012KT M02/M05 A3016 RMK A01 T10171046  RH  081%=      5-min Rain = 0
KFR1 190805Z 02012KT M02/M05 A3016 RMK A01 T10171046  RH  080%=      5-min Rain = 0
KFR1 190806Z 02012KT M02/M05 A3016 RMK A01 T10171046  RH  081%=      5-min Rain = 0
KFR1 190807Z 01010G15KT M02/M05 A3016 RMK A01 T10171046  RH  080%=      5-min Rain = 0
KFR1 190808Z 02010KT M02/M05 A3016 RMK A01 T10171047  RH  080%=      5-min Rain = 0
KFR1 190809Z 02016KT M02/M05 A3016 RMK A01 T10171047  RH  080%=      5-min Rain = 0
KFR1 190810Z 02014G20KT M02/M05 A3016 RMK A01 T10171047  RH  080%=      5-min Rain = 0
KFR1 190811Z 01013G18KT M02/M05 A3016 RMK A01 T10171047  RH  080%=      5-min Rain = 0
KFR1 190812Z 01014KT M02/M05 A3016 RMK A01 T10161046  RH  080%=      5-min Rain = 0
KFR1 190813Z 01013G19KT M02/M05 A3016 RMK A01 T10161046  RH  080%=      5-min Rain = 0
KFR1 190814Z 01015G20KT M02/M05 A3016 RMK A01 T10161046  RH  080%=      5-min Rain = 0
KFR1 190815Z 01013KT M02/M05 A3016 RMK A01 T10171046  RH  080%=      5-min Rain = 0
KFR1 190816Z 02012KT M02/M05 A3016 RMK A01 T10161045  RH  081%=      5-min Rain = 0
KFR1 190817Z 01014G20KT M02/M05 A3016 RMK A01 T10161045  RH  080%=      5-min Rain = 0
KFR1 190818Z 01012KT M02/M05 A3016 RMK A01 T10161046  RH  080%=      5-min Rain = 0
KFR1 190819Z 01012KT M02/M05 A3016 RMK A01 T10161046  RH  080%=      5-min Rain = 0
KFR1 190820Z 01013G18KT M02/M05 A3016 RMK A01 T10161046  RH  080%=      5-min Rain = 0
KFR1 190821Z 00014KT M02/M05 A3016 RMK A01 T10161046  RH  080%=      5-min Rain = 0
KFR1 190822Z 00012KT M02/M05 A3016 RMK A01 T10161046  RH  080%=      5-min Rain = 0
KFR1 190823Z 36012KT M02/M05 A3016 RMK A01 T10161045  RH  080%=      5-min Rain = 0
KFR1 190824Z 00015G21KT M02/M05 A3016 RMK A01 T10161045  RH  081%=      5-min Rain = 0
KFR1 190825Z 36017G22KT M02/M05 A3016 RMK A01 T10161046  RH  080%=      5-min Rain = 0
KFR1 190826Z 36013KT M02/M05 A3016 RMK A01 T10161047  RH  079%=      5-min Rain = 0
KFR1 190827Z 35015KT M02/M05 A3016 RMK A01 T10151046  RH  080%=      5-min Rain = 0
KFR1 190828Z 00015G20KT M02/M05 A3016 RMK A01 T10151047  RH  079%=      5-min Rain = 0
KFR1 190829Z 01018G23KT M02/M05 A3016 RMK A01 T10151048  RH  079%=      5-min Rain = 0
KFR1 190830Z 01016KT M02/M05 A3016 RMK A01 T10151049  RH  078%=      5-min Rain = 0
KFR1 190831Z 01014KT M02/M05 A3016 RMK A01 T10161049  RH  078%=      5-min Rain = 0
KFR1 190832Z 01015G21KT M02/M05 A3016 RMK A01 T10161049  RH  078%=      5-min Rain = 0
KFR1 190833Z 36015G21KT M02/M05 A3016 RMK A01 T10161049  RH  078%=      5-min Rain = 0
KFR1 190834Z 00015KT M02/M05 A3016 RMK A01 T10161049  RH  078%=      5-min Rain = 0
KFR1 190835Z 01016G21KT M02/M05 A3016 RMK A01 T10161048  RH  079%=      5-min Rain = 0
KFR1 190836Z 01015G22KT M02/M05 A3016 RMK A01 T10161048  RH  079%=      5-min Rain = 0
KFR1 190837Z 36016KT M02/M05 A3016 RMK A01 T10161049  RH  078%=      5-min Rain = 0
KFR1 190838Z 01014KT M02/M05 A3016 RMK A01 T10161048  RH  078%=      5-min Rain = 0
KFR1 190839Z 00013G19KT M02/M05 A3016 RMK A01 T10161049  RH  078%=      5-min Rain = 0
KFR1 190840Z 36013KT M02/M05 A3016 RMK A01 T10161049  RH  078%=      5-min Rain = 0
KFR1 190841Z 36012KT M02/M05 A3016 RMK A01 T10161048  RH  079%=      5-min Rain = 0
KFR1 190842Z 00013KT M02/M05 A3016 RMK A01 T10161046  RH  080%=      5-min Rain = 0
KFR1 190843Z 36012KT M02/M05 A3016 RMK A01 T10161047  RH  080%=      5-min Rain = 0
KFR1 190844Z 35012KT M02/M05 A3016 RMK A01 T10161047  RH  080%=      5-min Rain = 0
KFR1 190845Z 35011KT M02/M05 A3016 RMK A01 T10161047  RH  080%=      5-min Rain = 0
KFR1 190846Z 36015G20KT M02/M05 A3016 RMK A01 T10161046  RH  080%=      5-min Rain = 0
KFR1 190847Z 35012KT M02/M05 A3016 RMK A01 T10161046  RH  080%=      5-min Rain = 0
KFR1 190848Z 34012KT M02/M05 A3016 RMK A01 T10161047  RH  079%=      5-min Rain = 0
KFR1 190849Z 35012G18KT M02/M05 A3016 RMK A01 T10161047  RH  079%=      5-min Rain = 0
KFR1 190850Z 35015G22KT M02/M05 A3016 RMK A01 T10161048  RH  079%=      5-min Rain = 0
KFR1 190851Z 35016KT M02/M05 A3016 RMK A01 T10161048  RH  078%=      5-min Rain = 0
KFR1 190852Z 34013G18KT M02/M05 A3016 RMK A01 T10151048  RH  078%=      5-min Rain = 0
KFR1 190853Z 34014G21KT M02/M05 A3017 RMK A01 T10151048  RH  078%=      5-min Rain = 0
KFR1 190854Z 35019KT M02/M05 A3017 RMK A01 T10151049  RH  078%=      5-min Rain = 0
KFR1 190855Z 36019KT M02/M05 A3016 RMK A01 T10151050  RH  077%=      5-min Rain = 0
KFR1 190856Z 36018G24KT M02/M05 A3016 RMK A01 T10151050  RH  077%=      5-min Rain = 0
KFR1 190857Z 36020G25KT M02/M05 A3016 RMK A01 T10151049  RH  078%=      5-min Rain = 0
KFR1 190858Z 00022KT M01/M05 A3016 RMK A01 T10141047  RH  078%=      5-min Rain = 0
KFR1 190859Z 36021G28KT M01/M05 A3016 RMK A01 T10141048  RH  078%=      5-min Rain = 0
KFR1 190900Z 35022G27KT M01/M05 A3016 RMK A01 T10141049  RH  077%=      5-min Rain = 0
KFR1 190901Z 36022G28KT M01/M05 A3016 RMK A01 T10141049  RH  077%=      5-min Rain = 0
KFR1 190902Z 36022KT M01/M05 A3016 RMK A01 T10141050  RH  077%=      5-min Rain = 0
KFR1 190903Z 00020G25KT M01/M05 A3016 RMK A01 T10141050  RH  077%=      5-min Rain = 0
KFR1 190904Z 36019G24KT M01/M05 A3016 RMK A01 T10141049  RH  077%=      5-min Rain = 0
KFR1 190905Z 36020KT M01/M05 A3016 RMK A01 T10141049  RH  077%=      5-min Rain = 0
KFR1 190906Z 36021KT M01/M05 A3016 RMK A01 T10141050  RH  077%=      5-min Rain = 0
KFR1 190907Z 00019KT M02/M05 A3016 RMK A01 T10151049  RH  077%=      5-min Rain = 0
KFR1 190908Z 00019G24KT M01/M05 A3016 RMK A01 T10141048  RH  078%=      5-min Rain = 0
KFR1 190909Z 36016KT M01/M05 A3016 RMK A01 T10141048  RH  078%=      5-min Rain = 0
KFR1 190910Z 00015KT M01/M05 A3016 RMK A01 T10141048  RH  078%=      5-min Rain = 0
KFR1 190911Z 00018KT M01/M05 A3016 RMK A01 T10141047  RH  078%=      5-min Rain = 0
KFR1 190912Z 35018KT M01/M05 A3017 RMK A01 T10141049  RH  077%=      5-min Rain = 0
KFR1 190913Z 36016G22KT M02/M05 A3017 RMK A01 T10151049  RH  077%=      5-min Rain = 0
KFR1 190914Z 01018KT M02/M05 A3017 RMK A01 T10151049  RH  078%=      5-min Rain = 0
KFR1 190915Z 36016KT M02/M05 A3017 RMK A01 T10151049  RH  077%=      5-min Rain = 0
KFR1 190916Z 00018G23KT M02/M05 A3017 RMK A01 T10151048  RH  078%=      5-min Rain = 0
KFR1 190917Z 00018KT M02/M05 A3017 RMK A01 T10151048  RH  078%=      5-min Rain = 0
KFR1 190918Z 00015KT M02/M05 A3017 RMK A01 T10151048  RH  078%=      5-min Rain = 0
KFR1 190919Z 00014KT M02/M05 A3017 RMK A01 T10151048  RH  078%=      5-min Rain = 0
KFR1 190920Z 00016G21KT M02/M05 A3017 RMK A01 T10151048  RH  078%=      5-min Rain = 0
KFR1 190921Z 36015KT M02/M05 A3017 RMK A01 T10151049  RH  078%=      5-min Rain = 0
KFR1 190922Z 35014KT M02/M05 A3017 RMK A01 T10151049  RH  078%=      5-min Rain = 0
KFR1 190923Z 35014KT M02/M05 A3017 RMK A01 T10161049  RH  078%=      5-min Rain = 0
KFR1 190924Z 00016KT M02/M05 A3017 RMK A01 T10161049  RH  078%=      5-min Rain = 0
KFR1 190925Z 00015KT M02/M05 A3017 RMK A01 T10161049  RH  079%=      5-min Rain = 0
KFR1 190926Z 35013KT M02/M05 A3017 RMK A01 T10161048  RH  078%=      5-min Rain = 0
KFR1 190927Z 36013KT M02/M05 A3017 RMK A01 T10161047  RH  079%=      5-min Rain = 0
KFR1 190928Z 36013KT M02/M05 A3017 RMK A01 T10151046  RH  080%=      5-min Rain = 0
KFR1 190929Z 35012KT M02/M05 A3017 RMK A01 T10161046  RH  079%=      5-min Rain = 0
KFR1 190930Z 35014KT M02/M05 A3017 RMK A01 T10161047  RH  079%=      5-min Rain = 0
KFR1 190931Z 35014KT M02/M05 A3017 RMK A01 T10161047  RH  079%=      5-min Rain = 0
KFR1 190932Z 36012KT M02/M05 A3017 RMK A01 T10151047  RH  079%=      5-min Rain = 0
KFR1 190933Z 35014KT M02/M05 A3017 RMK A01 T10151046  RH  080%=      5-min Rain = 0
KFR1 190934Z 35014KT M02/M05 A3018 RMK A01 T10161047  RH  079%=      5-min Rain = 0
KFR1 190935Z 36012KT M02/M05 A3018 RMK A01 T10161047  RH  079%=      5-min Rain = 0
KFR1 190936Z 35013KT M02/M05 A3018 RMK A01 T10161046  RH  080%=      5-min Rain = 0
KFR1 190937Z 36012KT M02/M05 A3018 RMK A01 T10151046  RH  080%=      5-min Rain = 0
KFR1 190938Z 36012KT M02/M05 A3018 RMK A01 T10161046  RH  080%=      5-min Rain = 0
KFR1 190939Z 35012KT M02/M05 A3017 RMK A01 T10161045  RH  080%=      5-min Rain = 0
KFR1 190940Z 35012KT M02/M05 A3017 RMK A01 T10151046  RH  080%=      5-min Rain = 0
KFR1 190941Z 35012G17KT M02/M05 A3018 RMK A01 T10161046  RH  080%=      5-min Rain = 0
KFR1 190942Z 35011KT M02/M05 A3018 RMK A01 T10161046  RH  080%=      5-min Rain = 0
KFR1 190943Z 36011KT M02/M05 A3018 RMK A01 T10161046  RH  080%=      5-min Rain = 0
KFR1 190944Z 35009KT M02/M05 A3018 RMK A01 T10161045  RH  081%=      5-min Rain = 0
KFR1 190945Z 34009KT M02/M05 A3018 RMK A01 T10161045  RH  081%=      5-min Rain = 0
KFR1 190946Z 34010KT M02/M05 A3018 RMK A01 T10161045  RH  080%=      5-min Rain = 0
KFR1 190947Z 34012G19KT M02/M05 A3018 RMK A01 T10171047  RH  080%=      5-min Rain = 0
KFR1 190948Z 33015G20KT M02/M05 A3018 RMK A01 T10171048  RH  079%=      5-min Rain = 0
KFR1 190949Z 34014KT M02/M05 A3018 RMK A01 T10181049  RH  079%=      5-min Rain = 0
KFR1 190950Z 34013KT M02/M05 A3018 RMK A01 T10181050  RH  079%=      5-min Rain = 0
KFR1 190951Z 34012G17KT M02/M05 A3019 RMK A01 T10181050  RH  079%=      5-min Rain = 0
KFR1 190952Z 34011G17KT M02/M05 A3019 RMK A01 T10181049  RH  079%=      5-min Rain = 0
KFR1 190953Z 34015G24KT M02/M05 A3019 RMK A01 T10181049  RH  080%=      5-min Rain = 0
KFR1 190954Z 34013G19KT M02/M05 A3019 RMK A01 T10191051  RH  079%=      5-min Rain = 0
KFR1 190955Z 35014KT M02/M05 A3018 RMK A01 T10191051  RH  079%=      5-min Rain = 0
KFR1 190956Z 35014KT M02/M05 A3019 RMK A01 T10201051  RH  079%=      5-min Rain = 0
KFR1 190957Z 36014G19KT M02/M05 A3019 RMK A01 T10201051  RH  079%=      5-min Rain = 0
KFR1 190958Z 34015G22KT M02/M05 A3019 RMK A01 T10201051  RH  079%=      5-min Rain = 0
KFR1 190959Z 35013KT M02/M05 A3019 RMK A01 T10201051  RH  079%=      5-min Rain = 0
KFR1 191000Z 36016KT M02/M05 A3018 RMK A01 T10211052  RH  079%=      5-min Rain = 0
KFR1 191001Z 36015G21KT M02/M05 A3019 RMK A01 T10201051  RH  079%=      5-min Rain = 0
KFR1 191002Z 35014KT M02/M05 A3019 RMK A01 T10211052  RH  079%=      5-min Rain = 0
KFR1 191003Z 36015KT M02/M05 A3019 RMK A01 T10211052  RH  079%=      5-min Rain = 0
KFR1 191004Z 35015G20KT M02/M05 A3019 RMK A01 T10211053  RH  079%=      5-min Rain = 0
KFR1 191005Z 36015KT M02/M05 A3019 RMK A01 T10211052  RH  079%=      5-min Rain = 0
KFR1 191006Z 35016G23KT M02/M05 A3019 RMK A01 T10211052  RH  079%=      5-min Rain = 0
KFR1 191007Z 35015G20KT M02/M05 A3019 RMK A01 T10211052  RH  079%=      5-min Rain = 0
KFR1 191008Z 36014KT M02/M05 A3019 RMK A01 T10211053  RH  079%=      5-min Rain = 0
KFR1 191009Z 35017G22KT M02/M05 A3019 RMK A01 T10221052  RH  080%=      5-min Rain = 0
KFR1 191010Z 35019KT M02/M05 A3019 RMK A01 T10211052  RH  079%=      5-min Rain = 0
KFR1 191011Z 35016G21KT M02/M05 A3019 RMK A01 T10221053  RH  079%=      5-min Rain = 0
KFR1 191012Z 36015KT M02/M05 A3019 RMK A01 T10221052  RH  079%=      5-min Rain = 0
KFR1 191013Z 35014KT M02/M05 A3019 RMK A01 T10211051  RH  080%=      5-min Rain = 0
KFR1 191014Z 36017KT M02/M05 A3019 RMK A01 T10221051  RH  080%=      5-min Rain = 0
KFR1 191015Z 00015KT M02/M05 A3018 RMK A01 T10221052  RH  080%=      5-min Rain = 0
KFR1 191016Z 35017G23KT M02/M05 A3019 RMK A01 T10211051  RH  080%=      5-min Rain = 0
KFR1 191017Z 36019KT M02/M05 A3018 RMK A01 T10221052  RH  080%=      5-min Rain = 0
KFR1 191018Z 36019KT M02/M05 A3018 RMK A01 T10211052  RH  079%=      5-min Rain = 0
KFR1 191019Z 36015G20KT M02/M05 A3018 RMK A01 T10221052  RH  080%=      5-min Rain = 0
KFR1 191020Z 36015KT M02/M05 A3018 RMK A01 T10221052  RH  080%=      5-min Rain = 0
KFR1 191021Z 36017KT M02/M05 A3019 RMK A01 T10221052  RH  080%=      5-min Rain = 0
KFR1 191022Z 00012G18KT M02/M05 A3019 RMK A01 T10221051  RH  080%=      5-min Rain = 0
KFR1 191023Z 36014KT M02/M05 A3018 RMK A01 T10221050  RH  081%=      5-min Rain = 0
KFR1 191024Z 01013KT M02/M05 A3018 RMK A01 T10221050  RH  081%=      5-min Rain = 0
KFR1 191025Z 36013G19KT M02/M05 A3018 RMK A01 T10211049  RH  081%=      5-min Rain = 0
KFR1 191026Z 36013KT M02/M05 A3018 RMK A01 T10221049  RH  081%=      5-min Rain = 0
KFR1 191027Z 36013KT M02/M05 A3018 RMK A01 T10221049  RH  082%=      5-min Rain = 0
KFR1 191028Z 35012KT M02/M05 A3018 RMK A01 T10221050  RH  081%=      5-min Rain = 0
KFR1 191029Z 36014KT M02/M05 A3018 RMK A01 T10221049  RH  081%=      5-min Rain = 0
KFR1 191030Z 36013G19KT M02/M05 A3018 RMK A01 T10221050  RH  081%=      5-min Rain = 0
KFR1 191031Z 36013G18KT M02/M05 A3018 RMK A01 T10221050  RH  081%=      5-min Rain = 0
KFR1 191032Z 36013KT M02/M05 A3018 RMK A01 T10221050  RH  081%=      5-min Rain = 0
KFR1 191033Z 35012KT M02/M05 A3018 RMK A01 T10221050  RH  081%=      5-min Rain = 0
KFR1 191034Z 36013KT M02/M05 A3018 RMK A01 T10221050  RH  081%=      5-min Rain = 0
KFR1 191035Z 35009KT M02/M05 A3019 RMK A01 T10221051  RH  081%=      5-min Rain = 0
KFR1 191036Z 34008KT M02/M05 A3019 RMK A01 T10221050  RH  081%=      5-min Rain = 0
KFR1 191037Z 35011KT M02/M05 A3019 RMK A01 T10221050  RH  082%=      5-min Rain = 0
KFR1 191038Z 35012G17KT M02/M05 A3019 RMK A01 T10221050  RH  082%=      5-min Rain = 0
KFR1 191039Z 35010KT M02/M05 A3019 RMK A01 T10231050  RH  082%=      5-min Rain = 0
KFR1 191040Z 36009KT M02/M05 A3019 RMK A01 T10221050  RH  082%=      5-min Rain = 0
KFR1 191041Z 35011KT M02/M05 A3019 RMK A01 T10231049  RH  082%=      5-min Rain = 0
KFR1 191042Z 34010G15KT M02/M05 A3019 RMK A01 T10231049  RH  082%=      5-min Rain = 0
KFR1 191043Z 35011KT M02/M05 A3019 RMK A01 T10221050  RH  082%=      5-min Rain = 0
KFR1 191044Z 35012KT M02/M05 A3019 RMK A01 T10231050  RH  082%=      5-min Rain = 0
KFR1 191045Z 36012KT M02/M05 A3019 RMK A01 T10231050  RH  082%=      5-min Rain = 0
KFR1 191046Z 35012KT M02/M05 A3019 RMK A01 T10231050  RH  082%=      5-min Rain = 0
KFR1 191047Z 36011KT M02/M05 A3019 RMK A01 T10231050  RH  082%=      5-min Rain = 0
KFR1 191048Z 35011KT M02/M05 A3019 RMK A01 T10231049  RH  082%=      5-min Rain = 0
KFR1 191049Z 35011KT M02/M05 A3019 RMK A01 T10231049  RH  082%=      5-min Rain = 0
KFR1 191050Z 35013KT M02/M05 A3019 RMK A01 T10231049  RH  082%=      5-min Rain = 0
KFR1 191051Z 35010KT M02/M05 A3019 RMK A01 T10231050  RH  082%=      5-min Rain = 0
KFR1 191052Z 35008KT M02/M05 A3019 RMK A01 T10231049  RH  082%=      5-min Rain = 0
KFR1 191053Z 35008KT M02/M05 A3019 RMK A01 T10231049  RH  083%=      5-min Rain = 0
KFR1 191054Z 35009KT M02/M05 A3019 RMK A01 T10231049  RH  083%=      5-min Rain = 0
KFR1 191055Z 35007KT M02/M05 A3019 RMK A01 T10241049  RH  083%=      5-min Rain = 0
KFR1 191056Z 34008KT M02/M05 A3019 RMK A01 T10241049  RH  083%=      5-min Rain = 0
KFR1 191057Z 34010KT M02/M05 A3019 RMK A01 T10241049  RH  083%=      5-min Rain = 0
KFR1 191058Z 34008KT M02/M05 A3019 RMK A01 T10241050  RH  082%=      5-min Rain = 0
KFR1 191059Z 34009KT M03/M05 A3019 RMK A01 T10251051  RH  082%=      5-min Rain = 0
KFR1 191100Z 34009KT M02/M05 A3019 RMK A01 T10241050  RH  082%=      5-min Rain = 0
KFR1 191101Z 34009KT M02/M05 A3019 RMK A01 T10241050  RH  083%=      5-min Rain = 0
KFR1 191102Z 35010KT M02/M05 A3019 RMK A01 T10241050  RH  083%=      5-min Rain = 0
KFR1 191103Z 35011G16KT M02/M05 A3019 RMK A01 T10241049  RH  083%=      5-min Rain = 0
KFR1 191104Z 34009KT M02/M05 A3019 RMK A01 T10241050  RH  083%=      5-min Rain = 0
KFR1 191105Z 35012KT M02/M05 A3019 RMK A01 T10241050  RH  083%=      5-min Rain = 0
KFR1 191106Z 35010KT M02/M05 A3019 RMK A01 T10241049  RH  083%=      5-min Rain = 0
KFR1 191107Z 35010KT M02/M05 A3019 RMK A01 T10241049  RH  083%=      5-min Rain = 0
KFR1 191108Z 35009G14KT M02/M05 A3019 RMK A01 T10241049  RH  083%=      5-min Rain = 0
KFR1 191109Z 35008KT M02/M05 A3019 RMK A01 T10241049  RH  083%=      5-min Rain = 0
KFR1 191110Z 35011KT M02/M05 A3019 RMK A01 T10231048  RH  083%=      5-min Rain = 0
KFR1 191111Z 36011KT M02/M05 A3019 RMK A01 T10241048  RH  083%=      5-min Rain = 0
KFR1 191112Z 34010KT M02/M05 A3019 RMK A01 T10231049  RH  083%=      5-min Rain = 0
KFR1 191113Z 35011KT M02/M05 A302 RMK A01 T10231048  RH  083%=      5-min Rain = 0
KFR1 191114Z 35010KT M02/M05 A302 RMK A01 T10241048  RH  083%=      5-min Rain = 0
KFR1 191115Z 35010KT M02/M05 A302 RMK A01 T10231048  RH  083%=      5-min Rain = 0
KFR1 191116Z 35011KT M02/M05 A302 RMK A01 T10231048  RH  083%=      5-min Rain = 0
KFR1 191117Z 35012KT M02/M05 A302 RMK A01 T10231048  RH  083%=      5-min Rain = 0
KFR1 191118Z 36010KT M02/M05 A302 RMK A01 T10231048  RH  083%=      5-min Rain = 0
KFR1 191119Z 35011KT M02/M05 A302 RMK A01 T10231048  RH  083%=      5-min Rain = 0
KFR1 191120Z 35012KT M02/M05 A302 RMK A01 T10231048  RH  083%=      5-min Rain = 0
KFR1 191121Z 35011KT M02/M05 A302 RMK A01 T10231048  RH  083%=      5-min Rain = 0
KFR1 191122Z 35011KT M02/M05 A302 RMK A01 T10231048  RH  083%=      5-min Rain = 0
KFR1 191123Z 35010KT M02/M05 A302 RMK A01 T10231049  RH  083%=      5-min Rain = 0
KFR1 191124Z 35008KT M02/M05 A302 RMK A01 T10231048  RH  083%=      5-min Rain = 0
KFR1 191125Z 35011KT M02/M05 A302 RMK A01 T10231049  RH  083%=      5-min Rain = 0
KFR1 191126Z 35010KT M02/M05 A302 RMK A01 T10241049  RH  083%=      5-min Rain = 0
KFR1 191127Z 34008KT M02/M05 A302 RMK A01 T10231049  RH  083%=      5-min Rain = 0
KFR1 191128Z 35012KT M02/M05 A302 RMK A01 T10241049  RH  083%=      5-min Rain = 0
KFR1 191129Z 35011KT M02/M05 A302 RMK A01 T10241049  RH  083%=      5-min Rain = 0
KFR1 191130Z 36009KT M02/M05 A302 RMK A01 T10231049  RH  083%=      5-min Rain = 0
KFR1 191131Z 34008KT M02/M05 A302 RMK A01 T10231049  RH  083%=      5-min Rain = 0
KFR1 191132Z 35010KT M02/M05 A302 RMK A01 T10241048  RH  083%=      5-min Rain = 0
KFR1 191133Z 35012KT M02/M05 A302 RMK A01 T10231048  RH  083%=      5-min Rain = 0
KFR1 191134Z 35012KT M02/M05 A302 RMK A01 T10231048  RH  083%=      5-min Rain = 0
KFR1 191135Z 35011KT M02/M05 A302 RMK A01 T10221048  RH  083%=      5-min Rain = 0
KFR1 191136Z 35009KT M02/M05 A302 RMK A01 T10221048  RH  083%=      5-min Rain = 0
KFR1 191137Z 35010G16KT M02/M05 A302 RMK A01 T10221048  RH  083%=      5-min Rain = 0
KFR1 191138Z 35011KT M02/M05 A302 RMK A01 T10221047  RH  083%=      5-min Rain = 0
KFR1 191139Z 35009KT M02/M05 A302 RMK A01 T10221047  RH  083%=      5-min Rain = 0
KFR1 191140Z 36010KT M02/M05 A302 RMK A01 T10221047  RH  083%=      5-min Rain = 0
KFR1 191141Z 35011KT M02/M05 A302 RMK A01 T10221047  RH  083%=      5-min Rain = 0
KFR1 191142Z 35010KT M02/M05 A302 RMK A01 T10221047  RH  083%=      5-min Rain = 0
KFR1 191143Z 36010KT M02/M05 A302 RMK A01 T10211046  RH  083%=      5-min Rain = 0
KFR1 191144Z 35009KT M02/M04 A302 RMK A01 T10211044  RH  084%=      5-min Rain = 0
KFR1 191145Z 35009KT M02/M05 A302 RMK A01 T10211045  RH  084%=      5-min Rain = 0
KFR1 191146Z 35009KT M02/M05 A302 RMK A01 T10211045  RH  083%=      5-min Rain = 0
KFR1 191147Z 35010KT M02/M05 A302 RMK A01 T10201045  RH  083%=      5-min Rain = 0
KFR1 191148Z 35009KT M02/M05 A302 RMK A01 T10211046  RH  083%=      5-min Rain = 0
KFR1 191149Z 35008KT M02/M05 A302 RMK A01 T10211046  RH  083%=      5-min Rain = 0
KFR1 191150Z 35007KT M02/M05 A302 RMK A01 T10211045  RH  084%=      5-min Rain = 0
KFR1 191151Z 35009KT M02/M05 A302 RMK A01 T10211046  RH  083%=      5-min Rain = 0
KFR1 191152Z 35010KT M02/M05 A3021 RMK A01 T10221046  RH  083%=      5-min Rain = 0
KFR1 191153Z 34009KT M02/M05 A3021 RMK A01 T10221046  RH  083%=      5-min Rain = 0
KFR1 191154Z 33008KT M02/M05 A3021 RMK A01 T10211046  RH  083%=      5-min Rain = 0
KFR1 191155Z 35010KT M02/M05 A3021 RMK A01 T10211046  RH  083%=      5-min Rain = 0
KFR1 191156Z 36009KT M02/M05 A3021 RMK A01 T10211046  RH  083%=      5-min Rain = 0
KFR1 191157Z 35011KT M02/M05 A3021 RMK A01 T10211046  RH  083%=      5-min Rain = 0
KFR1 191158Z 34009G14KT M02/M05 A3021 RMK A01 T10221046  RH  083%=      5-min Rain = 0
KFR1 191159Z 35008KT M02/M05 A3021 RMK A01 T10221047  RH  083%=      5-min Rain = 0
KFR1 191200Z 34009KT M02/M05 A3021 RMK A01 T10211046  RH  083%=      5-min Rain = 0
KFR1 191201Z 35009KT M02/M05 A3021 RMK A01 T10211046  RH  083%=      5-min Rain = 0
KFR1 191202Z 36009KT M02/M05 A3021 RMK A01 T10211046  RH  083%=      5-min Rain = 0
KFR1 191203Z 35012KT M02/M05 A3021 RMK A01 T10201046  RH  083%=      5-min Rain = 0
KFR1 191204Z 36011G16KT M02/M05 A3021 RMK A01 T10201047  RH  082%=      5-min Rain = 0
KFR1 191205Z 36010KT M02/M05 A3021 RMK A01 T10201047  RH  082%=      5-min Rain = 0
KFR1 191206Z 36010KT M02/M05 A3021 RMK A01 T10201046  RH  082%=      5-min Rain = 0
KFR1 191207Z 35011KT M02/M05 A3021 RMK A01 T10201046  RH  082%=      5-min Rain = 0
KFR1 191208Z 00009KT M02/M05 A3021 RMK A01 T10201047  RH  082%=      5-min Rain = 0
KFR1 191209Z 36010KT M02/M05 A3021 RMK A01 T10201046  RH  082%=      5-min Rain = 0
KFR1 191210Z 35009KT M02/M05 A3021 RMK A01 T10201046  RH  083%=      5-min Rain = 0
KFR1 191211Z 36012KT M02/M05 A3021 RMK A01 T10201046  RH  083%=      5-min Rain = 0
KFR1 191212Z 36011KT M02/M05 A3021 RMK A01 T10201046  RH  082%=      5-min Rain = 0
KFR1 191213Z 36012KT M02/M05 A3021 RMK A01 T10201046  RH  083%=      5-min Rain = 0
KFR1 191214Z 00012KT M02/M05 A3021 RMK A01 T10201045  RH  083%=      5-min Rain = 0
KFR1 191215Z 36010KT M02/M05 A3022 RMK A01 T10191045  RH  083%=      5-min Rain = 0
KFR1 191216Z 00012KT M02/M05 A3022 RMK A01 T10191045  RH  083%=      5-min Rain = 0
KFR1 191217Z 00011KT M02/M05 A3022 RMK A01 T10191045  RH  082%=      5-min Rain = 0
KFR1 191218Z 36013KT M02/M05 A3022 RMK A01 T10191045  RH  082%=      5-min Rain = 0
KFR1 191219Z 00013KT M02/M05 A3022 RMK A01 T10191046  RH  082%=      5-min Rain = 0
KFR1 191220Z 00015KT M02/M05 A3022 RMK A01 T10191046  RH  082%=      5-min Rain = 0
KFR1 191221Z 01012KT M02/M05 A3022 RMK A01 T10191047  RH  082%=      5-min Rain = 0
KFR1 191222Z 00011KT M02/M05 A3022 RMK A01 T10191046  RH  082%=      5-min Rain = 0
KFR1 191223Z 36012KT M02/M05 A3022 RMK A01 T10191046  RH  082%=      5-min Rain = 0
KFR1 191224Z 01011KT M02/M05 A3022 RMK A01 T10191046  RH  082%=      5-min Rain = 0
KFR1 191225Z 00012G17KT M02/M05 A3022 RMK A01 T10191045  RH  082%=      5-min Rain = 0
KFR1 191226Z 00011KT M02/M05 A3022 RMK A01 T10191045  RH  082%=      5-min Rain = 0
KFR1 191227Z 00012KT M02/M05 A3022 RMK A01 T10201046  RH  082%=      5-min Rain = 0
KFR1 191228Z 01012KT M02/M05 A3022 RMK A01 T10201046  RH  082%=      5-min Rain = 0
KFR1 191229Z 00012KT M02/M05 A3022 RMK A01 T10201046  RH  082%=      5-min Rain = 0
KFR1 191230Z 00011KT M02/M05 A3022 RMK A01 T10201046  RH  082%=      5-min Rain = 0
KFR1 191231Z 00010KT M02/M05 A3022 RMK A01 T10201046  RH  083%=      5-min Rain = 0
KFR1 191232Z 36012KT M02/M05 A3022 RMK A01 T10201045  RH  083%=      5-min Rain = 0
KFR1 191233Z 36015KT M02/M05 A3022 RMK A01 T10201045  RH  083%=      5-min Rain = 0
KFR1 191234Z 36014G19KT M02/M05 A3022 RMK A01 T10201047  RH  082%=      5-min Rain = 0
KFR1 191235Z 36011KT M02/M05 A3022 RMK A01 T10201047  RH  082%=      5-min Rain = 0
KFR1 191236Z 35012KT M02/M05 A3023 RMK A01 T10201047  RH  082%=      5-min Rain = 0
KFR1 191237Z 35011G16KT M02/M05 A3023 RMK A01 T10211047  RH  082%=      5-min Rain = 0
KFR1 191238Z 00011KT M02/M05 A3023 RMK A01 T10211048  RH  082%=      5-min Rain = 0
KFR1 191239Z 36011KT M02/M05 A3023 RMK A01 T10211048  RH  082%=      5-min Rain = 0
KFR1 191240Z 35011KT M02/M05 A3023 RMK A01 T10211047  RH  082%=      5-min Rain = 0
KFR1 191241Z 36012KT M02/M05 A3023 RMK A01 T10221048  RH  082%=      5-min Rain = 0
KFR1 191242Z 00010KT M02/M05 A3023 RMK A01 T10221048  RH  082%=      5-min Rain = 0
KFR1 191243Z 36011KT M02/M05 A3023 RMK A01 T10221047  RH  083%=      5-min Rain = 0
KFR1 191244Z 00012KT M02/M05 A3023 RMK A01 T10221047  RH  083%=      5-min Rain = 0
KFR1 191245Z 36009G14KT M02/M05 A3023 RMK A01 T10221048  RH  083%=      5-min Rain = 0
KFR1 191246Z 00009KT M02/M05 A3023 RMK A01 T10231048  RH  083%=      5-min Rain = 0
KFR1 191247Z 36009KT M02/M05 A3023 RMK A01 T10231047  RH  083%=      5-min Rain = 0
KFR1 191248Z 35010KT M02/M05 A3023 RMK A01 T10231047  RH  084%=      5-min Rain = 0
KFR1 191249Z 35011KT M02/M05 A3023 RMK A01 T10231048  RH  083%=      5-min Rain = 0
KFR1 191250Z 35012KT M02/M05 A3023 RMK A01 T10241049  RH  083%=      5-min Rain = 0
KFR1 191251Z 35010KT M02/M05 A3023 RMK A01 T10241049  RH  083%=      5-min Rain = 0
KFR1 191252Z 35010KT M02/M05 A3023 RMK A01 T10241049  RH  083%=      5-min Rain = 0
KFR1 191253Z 36011KT M02/M05 A3023 RMK A01 T10231049  RH  083%=      5-min Rain = 0
KFR1 191254Z 35008KT M02/M05 A3024 RMK A01 T10241049  RH  083%=      5-min Rain = 0
KFR1 191255Z 35007KT M02/M05 A3024 RMK A01 T10241049  RH  083%=      5-min Rain = 0
KFR1 191256Z 35008KT M03/M05 A3024 RMK A01 T10251049  RH  083%=      5-min Rain = 0
KFR1 191257Z 34006KT M03/M05 A3024 RMK A01 T10251049  RH  084%=      5-min Rain = 0
KFR1 191258Z 34007KT M03/M05 A3024 RMK A01 T10251049  RH  084%=      5-min Rain = 0
KFR1 191259Z 34005KT M03/M05 A3024 RMK A01 T10251049  RH  084%=      5-min Rain = 0
KFR1 191300Z 35006KT M03/M05 A3024 RMK A01 T10261049  RH  084%=      5-min Rain = 0
KFR1 191301Z 35006KT M03/M05 A3024 RMK A01 T10261049  RH  084%=      5-min Rain = 0
KFR1 191302Z 36006KT M03/M05 A3024 RMK A01 T10271050  RH  084%=      5-min Rain = 0
KFR1 191303Z 36005KT M03/M05 A3024 RMK A01 T10271050  RH  084%=      5-min Rain = 0
KFR1 191304Z 35007KT M03/M05 A3024 RMK A01 T10271049  RH  085%=      5-min Rain = 0
KFR1 191305Z 35005KT M03/M05 A3024 RMK A01 T10271049  RH  085%=      5-min Rain = 0
KFR1 191306Z 36006KT M03/M05 A3024 RMK A01 T10271050  RH  085%=      5-min Rain = 0
KFR1 191307Z 35005KT M03/M05 A3024 RMK A01 T10281050  RH  085%=      5-min Rain = 0
KFR1 191308Z 35005KT M03/M05 A3024 RMK A01 T10281050  RH  085%=      5-min Rain = 0
KFR1 191309Z 35005KT M03/M05 A3024 RMK A01 T10281050  RH  085%=      5-min Rain = 0
KFR1 191310Z 35006KT M03/M05 A3024 RMK A01 T10281050  RH  085%=      5-min Rain = 0
KFR1 191311Z 34005KT M03/M05 A3024 RMK A01 T10281051  RH  085%=      5-min Rain = 0
KFR1 191312Z 35005KT M03/M05 A3024 RMK A01 T10291050  RH  085%=      5-min Rain = 0
KFR1 191313Z 34005KT M03/M05 A3025 RMK A01 T10291050  RH  085%=      5-min Rain = 0
KFR1 191314Z 33004KT M03/M05 A3024 RMK A01 T10291051  RH  085%=      5-min Rain = 0
KFR1 191315Z 35006KT M03/M05 A3024 RMK A01 T10291051  RH  085%=      5-min Rain = 0
KFR1 191316Z 34005KT M03/M05 A3025 RMK A01 T10291051  RH  085%=      5-min Rain = 0
KFR1 191317Z 33006KT M03/M05 A3025 RMK A01 T10291051  RH  085%=      5-min Rain = 0
KFR1 191318Z 34005KT M03/M05 A3025 RMK A01 T10291051  RH  085%=      5-min Rain = 0
KFR1 191319Z 33005KT M03/M05 A3025 RMK A01 T10291050  RH  085%=      5-min Rain = 0
KFR1 191320Z 34004KT M03/M05 A3025 RMK A01 T10291050  RH  086%=      5-min Rain = 0
KFR1 191321Z 34005KT M03/M05 A3025 RMK A01 T10301050  RH  086%=      5-min Rain = 0
KFR1 191322Z 33006KT M03/M05 A3025 RMK A01 T10301051  RH  086%=      5-min Rain = 0
KFR1 191323Z 33006KT M03/M05 A3025 RMK A01 T10301050  RH  086%=      5-min Rain = 0
KFR1 191324Z 33006KT M03/M05 A3025 RMK A01 T10301050  RH  086%=      5-min Rain = 0
KFR1 191325Z 34007KT M03/M05 A3025 RMK A01 T10301050  RH  086%=      5-min Rain = 0
KFR1 191326Z 33007KT M03/M05 A3025 RMK A01 T10301050  RH  086%=      5-min Rain = 0
KFR1 191327Z 34006KT M03/M05 A3026 RMK A01 T10301050  RH  086%=      5-min Rain = 0
KFR1 191328Z 34006KT M03/M05 A3026 RMK A01 T10301051  RH  086%=      5-min Rain = 0
KFR1 191329Z 33008KT M03/M05 A3026 RMK A01 T10301051  RH  086%=      5-min Rain = 0
KFR1 191330Z 33008KT M03/M05 A3026 RMK A01 T10301051  RH  086%=      5-min Rain = 0
KFR1 191331Z 33007KT M03/M05 A3026 RMK A01 T10301051  RH  086%=      5-min Rain = 0
KFR1 191332Z 33007KT M03/M05 A3026 RMK A01 T10311052  RH  086%=      5-min Rain = 0
KFR1 191333Z 32007KT M03/M05 A3026 RMK A01 T10311051  RH  086%=      5-min Rain = 0
KFR1 191334Z 33006KT M03/M05 A3026 RMK A01 T10321052  RH  086%=      5-min Rain = 0
KFR1 191335Z 32005KT M03/M05 A3026 RMK A01 T10321052  RH  086%=      5-min Rain = 0
KFR1 191336Z 32006KT M03/M05 A3026 RMK A01 T10331052  RH  087%=      5-min Rain = 0
KFR1 191337Z 33006KT M03/M05 A3026 RMK A01 T10331052  RH  087%=      5-min Rain = 0
KFR1 191338Z 32006KT M03/M05 A3026 RMK A01 T10331053  RH  087%=      5-min Rain = 0
KFR1 191339Z 33005KT M03/M05 A3026 RMK A01 T10341053  RH  086%=      5-min Rain = 0
KFR1 191340Z 33006KT M03/M05 A3026 RMK A01 T10341054  RH  086%=      5-min Rain = 0
KFR1 191341Z 32006KT M03/M05 A3026 RMK A01 T10341054  RH  086%=      5-min Rain = 0
KFR1 191342Z 32007KT M04/M05 A3026 RMK A01 T10351054  RH  086%=      5-min Rain = 0
KFR1 191343Z 33008KT M04/M05 A3026 RMK A01 T10351054  RH  086%=      5-min Rain = 0
KFR1 191344Z 33007KT M04/M05 A3027 RMK A01 T10351054  RH  086%=      5-min Rain = 0
KFR1 191345Z 33007KT M04/M05 A3027 RMK A01 T10351054  RH  086%=      5-min Rain = 0
KFR1 191346Z 32007KT M04/M05 A3027 RMK A01 T10351054  RH  087%=      5-min Rain = 0
KFR1 191347Z 33007KT M04/M05 A3027 RMK A01 T10351054  RH  087%=      5-min Rain = 0
KFR1 191348Z 33007KT M04/M05 A3027 RMK A01 T10351054  RH  087%=      5-min Rain = 0
KFR1 191349Z 33007KT M04/M06 A3027 RMK A01 T10351055  RH  086%=      5-min Rain = 0
KFR1 191350Z 33007KT M04/M06 A3027 RMK A01 T10351055  RH  086%=      5-min Rain = 0
KFR1 191351Z 34005KT M04/M06 A3027 RMK A01 T10351055  RH  086%=      5-min Rain = 0
KFR1 191352Z 34006KT M04/M06 A3027 RMK A01 T10351055  RH  086%=      5-min Rain = 0
KFR1 191353Z 34006KT M04/M06 A3027 RMK A01 T10361056  RH  086%=      5-min Rain = 0
KFR1 191354Z 35006KT M04/M06 A3027 RMK A01 T10351055  RH  086%=      5-min Rain = 0
KFR1 191355Z 34006KT M04/M06 A3027 RMK A01 T10361056  RH  086%=      5-min Rain = 0
KFR1 191356Z 34006KT M04/M06 A3028 RMK A01 T10361056  RH  086%=      5-min Rain = 0
KFR1 191357Z 34006KT M04/M06 A3028 RMK A01 T10361056  RH  086%=      5-min Rain = 0
KFR1 191358Z 34006KT M04/M06 A3028 RMK A01 T10371056  RH  086%=      5-min Rain = 0
KFR1 191359Z 35007KT M04/M06 A3028 RMK A01 T10371056  RH  086%=      5-min Rain = 0
KFR1 191400Z 35007KT M04/M06 A3028 RMK A01 T10371056  RH  086%=      5-min Rain = 0
KFR1 191401Z 35005KT M04/M06 A3028 RMK A01 T10371057  RH  086%=      5-min Rain = 0
KFR1 191402Z 34007KT M04/M06 A3028 RMK A01 T10371057  RH  086%=      5-min Rain = 0
KFR1 191403Z 35005KT M04/M06 A3028 RMK A01 T10371057  RH  086%=      5-min Rain = 0
KFR1 191404Z 35007KT M04/M06 A3028 RMK A01 T10371057  RH  086%=      5-min Rain = 0
KFR1 191405Z 36006KT M04/M06 A3028 RMK A01 T10371057  RH  086%=      5-min Rain = 0
KFR1 191406Z 35006KT M04/M06 A3028 RMK A01 T10371057  RH  086%=      5-min Rain = 0
KFR1 191407Z 35006KT M04/M06 A3028 RMK A01 T10381057  RH  086%=      5-min Rain = 0
KFR1 191408Z 35006KT M04/M06 A3028 RMK A01 T10371057  RH  086%=      5-min Rain = 0
KFR1 191409Z 36007KT M04/M06 A3028 RMK A01 T10371057  RH  087%=      5-min Rain = 0
KFR1 191410Z 01007KT M04/M06 A3028 RMK A01 T10381057  RH  087%=      5-min Rain = 0
KFR1 191411Z 00007KT M04/M06 A3028 RMK A01 T10371057  RH  087%=      5-min Rain = 0
KFR1 191412Z 35008KT M04/M06 A3028 RMK A01 T10371056  RH  087%=      5-min Rain = 0
KFR1 191413Z 00007KT M04/M06 A3028 RMK A01 T10371057  RH  086%=      5-min Rain = 0
KFR1 191414Z 35008KT M04/M06 A3028 RMK A01 T10371057  RH  086%=      5-min Rain = 0
KFR1 191415Z 36007KT M04/M06 A3028 RMK A01 T10371057  RH  086%=      5-min Rain = 0
KFR1 191416Z 35008KT M04/M06 A3028 RMK A01 T10371057  RH  086%=      5-min Rain = 0
KFR1 191417Z 35007KT M04/M06 A3028 RMK A01 T10371057  RH  086%=      5-min Rain = 0
KFR1 191418Z 35008KT M04/M06 A3028 RMK A01 T10361057  RH  086%=      5-min Rain = 0
KFR1 191419Z 34007KT M04/M06 A3028 RMK A01 T10361057  RH  086%=      5-min Rain = 0
KFR1 191420Z 35007KT M04/M06 A3028 RMK A01 T10361057  RH  085%=      5-min Rain = 0
KFR1 191421Z 35007KT M04/M06 A3028 RMK A01 T10351057  RH  085%=      5-min Rain = 0
KFR1 191422Z 34006KT M04/M06 A3029 RMK A01 T10351057  RH  085%=      5-min Rain = 0
KFR1 191423Z 34006KT M04/M06 A3029 RMK A01 T10351057  RH  085%=      5-min Rain = 0
KFR1 191424Z 34006KT M04/M06 A3029 RMK A01 T10351057  RH  084%=      5-min Rain = 0
KFR1 191425Z 33007KT M03/M06 A3029 RMK A01 T10341057  RH  084%=      5-min Rain = 0
KFR1 191426Z 33006KT M03/M06 A3029 RMK A01 T10341056  RH  085%=      5-min Rain = 0
KFR1 191427Z 33007KT M03/M06 A3029 RMK A01 T10341056  RH  085%=      5-min Rain = 0
KFR1 191428Z 33008KT M03/M06 A3029 RMK A01 T10341057  RH  084%=      5-min Rain = 0
KFR1 191429Z 33007KT M03/M06 A3029 RMK A01 T10341057  RH  084%=      5-min Rain = 0
KFR1 191430Z 33008KT M03/M06 A3029 RMK A01 T10341058  RH  084%=      5-min Rain = 0
KFR1 191431Z 33007KT M03/M06 A3029 RMK A01 T10341057  RH  084%=      5-min Rain = 0
KFR1 191432Z 33007KT M03/M06 A3029 RMK A01 T10341057  RH  084%=      5-min Rain = 0
KFR1 191433Z 33008KT M03/M06 A3029 RMK A01 T10341057  RH  084%=      5-min Rain = 0
KFR1 191434Z 33007KT M03/M06 A303 RMK A01 T10341057  RH  084%=      5-min Rain = 0
KFR1 191435Z 33007KT M03/M06 A303 RMK A01 T10341057  RH  084%=      5-min Rain = 0
KFR1 191436Z 33007KT M03/M06 A303 RMK A01 T10341057  RH  084%=      5-min Rain = 0
KFR1 191437Z 33006KT M03/M06 A303 RMK A01 T10341056  RH  084%=      5-min Rain = 0
KFR1 191438Z 33006KT M03/M06 A303 RMK A01 T10341056  RH  085%=      5-min Rain = 0
KFR1 191439Z 32006KT M03/M06 A303 RMK A01 T10341056  RH  085%=      5-min Rain = 0
KFR1 191440Z 33006KT M03/M06 A303 RMK A01 T10341056  RH  085%=      5-min Rain = 0
KFR1 191441Z 32005KT M03/M06 A303 RMK A01 T10331056  RH  084%=      5-min Rain = 0
KFR1 191442Z 33005KT M03/M06 A303 RMK A01 T10331056  RH  084%=      5-min Rain = 0
KFR1 191443Z 32005KT M03/M06 A303 RMK A01 T10331057  RH  084%=      5-min Rain = 0
KFR1 191444Z 32005KT M03/M06 A303 RMK A01 T10331057  RH  084%=      5-min Rain = 0
KFR1 191445Z 33006KT M03/M06 A303 RMK A01 T10331056  RH  084%=      5-min Rain = 0
KFR1 191446Z 33007KT M03/M06 A303 RMK A01 T10331057  RH  084%=      5-min Rain = 0
KFR1 191447Z 32006KT M03/M06 A303 RMK A01 T10331057  RH  083%=      5-min Rain = 0
KFR1 191448Z 33006KT M03/M06 A303 RMK A01 T10331057  RH  083%=      5-min Rain = 0
KFR1 191449Z 32006KT M03/M06 A303 RMK A01 T10331057  RH  083%=      5-min Rain = 0
KFR1 191450Z 32005KT M03/M06 A303 RMK A01 T10331057  RH  083%=      5-min Rain = 0
KFR1 191451Z 33006KT M03/M06 A303 RMK A01 T10331057  RH  083%=      5-min Rain = 0
KFR1 191452Z 33006KT M03/M06 A303 RMK A01 T10331057  RH  083%=      5-min Rain = 0
KFR1 191453Z 33006KT M03/M06 A303 RMK A01 T10331057  RH  083%=      5-min Rain = 0
KFR1 191454Z 33006KT M03/M06 A303 RMK A01 T10321057  RH  083%=      5-min Rain = 0
KFR1 191455Z 33006KT M03/M06 A303 RMK A01 T10321057  RH  083%=      5-min Rain = 0
KFR1 191456Z 32004KT M03/M06 A303 RMK A01 T10321057  RH  083%=      5-min Rain = 0
KFR1 191457Z 33006KT M03/M06 A303 RMK A01 T10321057  RH  083%=      5-min Rain = 0
KFR1 191458Z 32006KT M03/M06 A303 RMK A01 T10321057  RH  083%=      5-min Rain = 0
KFR1 191459Z 33006KT M03/M06 A303 RMK A01 T10311056  RH  083%=      5-min Rain = 0
KFR1 191500Z 33006KT M03/M06 A303 RMK A01 T10311056  RH  083%=      5-min Rain = 0
KFR1 191501Z 33006KT M03/M06 A303 RMK A01 T10301055  RH  083%=      5-min Rain = 0
KFR1 191502Z 33006KT M03/M05 A303 RMK A01 T10301054  RH  083%=      5-min Rain = 0
KFR1 191503Z 33007KT M03/M05 A303 RMK A01 T10291054  RH  083%=      5-min Rain = 0
KFR1 191504Z 32006KT M03/M05 A303 RMK A01 T10291054  RH  083%=      5-min Rain = 0
KFR1 191505Z 33007KT M03/M05 A303 RMK A01 T10281054  RH  082%=      5-min Rain = 0
KFR1 191506Z 33008KT M03/M05 A303 RMK A01 T10281054  RH  082%=      5-min Rain = 0
KFR1 191507Z 33007KT M03/M06 A3031 RMK A01 T10281055  RH  082%=      5-min Rain = 0
KFR1 191508Z 33009KT M03/M05 A3031 RMK A01 T10281054  RH  082%=      5-min Rain = 0
KFR1 191509Z 33006KT M03/M06 A3031 RMK A01 T10281055  RH  082%=      5-min Rain = 0
KFR1 191510Z 34006KT M03/M06 A3031 RMK A01 T10281055  RH  081%=      5-min Rain = 0
KFR1 191511Z 33006KT M03/M06 A3031 RMK A01 T10281055  RH  081%=      5-min Rain = 0
KFR1 191512Z 33007KT M03/M05 A3031 RMK A01 T10281054  RH  082%=      5-min Rain = 0
KFR1 191513Z 33006KT M03/M05 A3031 RMK A01 T10281054  RH  082%=      5-min Rain = 0
KFR1 191514Z 32007KT M03/M05 A3031 RMK A01 T10271053  RH  082%=      5-min Rain = 0
KFR1 191515Z 33007KT M03/M05 A3031 RMK A01 T10271053  RH  082%=      5-min Rain = 0
KFR1 191516Z 33007KT M03/M05 A3031 RMK A01 T10271054  RH  082%=      5-min Rain = 0
KFR1 191517Z 34006KT M03/M05 A3031 RMK A01 T10271054  RH  082%=      5-min Rain = 0
KFR1 191518Z 34007KT M03/M05 A3031 RMK A01 T10261053  RH  082%=      5-min Rain = 0
KFR1 191519Z 33006KT M03/M05 A3031 RMK A01 T10261054  RH  081%=      5-min Rain = 0
KFR1 191520Z 32007KT M03/M05 A3031 RMK A01 T10261054  RH  081%=      5-min Rain = 0
KFR1 191521Z 32007KT M03/M06 A3031 RMK A01 T10261055  RH  081%=      5-min Rain = 0
KFR1 191522Z 32007KT M03/M06 A3031 RMK A01 T10261055  RH  081%=      5-min Rain = 0
KFR1 191523Z 32007KT M03/M06 A3031 RMK A01 T10261055  RH  081%=      5-min Rain = 0
KFR1 191524Z 33008KT M03/M05 A3031 RMK A01 T10261054  RH  081%=      5-min Rain = 0
KFR1 191525Z 34006G11KT M03/M06 A3031 RMK A01 T10261055  RH  081%=      5-min Rain = 0
KFR1 191526Z 34005KT M03/M05 A3031 RMK A01 T10261054  RH  081%=      5-min Rain = 0
KFR1 191527Z 34006KT M03/M05 A3031 RMK A01 T10261053  RH  081%=      5-min Rain = 0
KFR1 191528Z 34006KT M03/M05 A3031 RMK A01 T10261054  RH  081%=      5-min Rain = 0
KFR1 191529Z 33009KT M03/M05 A3031 RMK A01 T10261054  RH  081%=      5-min Rain = 0
KFR1 191530Z 34005KT M03/M06 A3031 RMK A01 T10261055  RH  080%=      5-min Rain = 0
KFR1 191531Z 33009KT M03/M06 A3031 RMK A01 T10261055  RH  080%=      5-min Rain = 0
KFR1 191532Z 34006KT M03/M06 A3031 RMK A01 T10261055  RH  080%=      5-min Rain = 0
KFR1 191533Z 33008KT M03/M05 A3031 RMK A01 T10261054  RH  081%=      5-min Rain = 0
KFR1 191534Z 34006KT M03/M06 A3031 RMK A01 T10261055  RH  080%=      5-min Rain = 0
KFR1 191535Z 33005KT M03/M05 A3031 RMK A01 T10251054  RH  080%=      5-min Rain = 0
KFR1 191536Z 33008KT M02/M05 A3032 RMK A01 T10241052  RH  081%=      5-min Rain = 0
KFR1 191537Z 34007KT M02/M05 A3032 RMK A01 T10231053  RH  080%=      5-min Rain = 0
KFR1 191538Z 35009KT M02/M05 A3032 RMK A01 T10231054  RH  080%=      5-min Rain = 0
KFR1 191539Z 35009KT M02/M06 A3032 RMK A01 T10241055  RH  079%=      5-min Rain = 0
KFR1 191540Z 35005KT M02/M06 A3032 RMK A01 T10241055  RH  079%=      5-min Rain = 0
KFR1 191541Z 35005KT M02/M05 A3032 RMK A01 T10241054  RH  080%=      5-min Rain = 0
KFR1 191542Z 34006KT M02/M05 A3032 RMK A01 T10241053  RH  080%=      5-min Rain = 0
KFR1 191543Z 34006KT M02/M05 A3032 RMK A01 T10221052  RH  080%=      5-min Rain = 0
KFR1 191544Z 33008KT M02/M05 A3032 RMK A01 T10221053  RH  080%=      5-min Rain = 0
KFR1 191545Z 34008KT M02/M05 A3032 RMK A01 T10231054  RH  079%=      5-min Rain = 0
KFR1 191546Z 35009KT M02/M05 A3032 RMK A01 T10231054  RH  079%=      5-min Rain = 0
KFR1 191547Z 34007KT M02/M05 A3032 RMK A01 T10231054  RH  079%=      5-min Rain = 0
KFR1 191548Z 35007KT M02/M05 A3032 RMK A01 T10231053  RH  080%=      5-min Rain = 0
KFR1 191549Z 36007KT M02/M05 A3032 RMK A01 T10221052  RH  080%=      5-min Rain = 0
KFR1 191550Z 36008KT M02/M05 A3032 RMK A01 T10221052  RH  080%=      5-min Rain = 0
KFR1 191551Z 35008KT M02/M05 A3032 RMK A01 T10221053  RH  079%=      5-min Rain = 0
KFR1 191552Z 36006KT M02/M05 A3032 RMK A01 T10221053  RH  079%=      5-min Rain = 0
KFR1 191553Z 34006KT M02/M05 A3032 RMK A01 T10211052  RH  079%=      5-min Rain = 0
KFR1 191554Z 33005KT M02/M05 A3033 RMK A01 T10201051  RH  080%=      5-min Rain = 0
KFR1 191555Z 34006KT M02/M05 A3033 RMK A01 T10191050  RH  080%=      5-min Rain = 0
KFR1 191556Z 34007KT M02/M05 A3033 RMK A01 T10191050  RH  079%=      5-min Rain = 0
KFR1 191557Z 35007KT M02/M05 A3033 RMK A01 T10191051  RH  079%=      5-min Rain = 0
KFR1 191558Z 33006KT M02/M05 A3033 RMK A01 T10191052  RH  078%=      5-min Rain = 0
KFR1 191559Z 33008KT M02/M05 A3033 RMK A01 T10201053  RH  078%=      5-min Rain = 0
KFR1 191600Z 34007KT M02/M05 A3033 RMK A01 T10211053  RH  078%=      5-min Rain = 0
KFR1 191601Z 33007KT M02/M05 A3033 RMK A01 T10211054  RH  078%=      5-min Rain = 0
KFR1 191602Z 35006KT M02/M05 A3033 RMK A01 T10211053  RH  079%=      5-min Rain = 0
KFR1 191603Z 34006KT M02/M05 A3033 RMK A01 T10201051  RH  079%=      5-min Rain = 0
KFR1 191604Z 34007KT M02/M05 A3033 RMK A01 T10201052  RH  079%=      5-min Rain = 0
KFR1 191605Z 34006KT M02/M05 A3033 RMK A01 T10211054  RH  078%=      5-min Rain = 0
KFR1 191606Z 35005KT M02/M05 A3033 RMK A01 T10201052  RH  079%=      5-min Rain = 0
KFR1 191607Z 33006KT M02/M05 A3033 RMK A01 T10191050  RH  079%=      5-min Rain = 0
KFR1 191608Z 34007KT M02/M05 A3033 RMK A01 T10191050  RH  079%=      5-min Rain = 0
KFR1 191609Z 35006KT M02/M05 A3033 RMK A01 T10191051  RH  079%=      5-min Rain = 0
KFR1 191610Z 35007KT M02/M05 A3033 RMK A01 T10191051  RH  079%=      5-min Rain = 0
KFR1 191611Z 35006KT M02/M05 A3033 RMK A01 T10201053  RH  078%=      5-min Rain = 0
KFR1 191612Z 01005KT M02/M05 A3033 RMK A01 T10201053  RH  078%=      5-min Rain = 0
KFR1 191613Z 34004KT M02/M05 A3033 RMK A01 T10191050  RH  079%=      5-min Rain = 0
KFR1 191614Z 33006KT M02/M05 A3033 RMK A01 T10181049  RH  079%=      5-min Rain = 0
KFR1 191615Z 35005KT M02/M05 A3034 RMK A01 T10181049  RH  079%=      5-min Rain = 0
KFR1 191616Z 36007KT M02/M05 A3034 RMK A01 T10161047  RH  080%=      5-min Rain = 0
KFR1 191617Z 35007KT M02/M05 A3034 RMK A01 T10161048  RH  079%=      5-min Rain = 0
KFR1 191618Z 34008KT M02/M05 A3034 RMK A01 T10171049  RH  079%=      5-min Rain = 0
KFR1 191619Z 33004KT M02/M05 A3034 RMK A01 T10171051  RH  078%=      5-min Rain = 0
KFR1 191620Z 35005KT M02/M05 A3034 RMK A01 T10171050  RH  078%=      5-min Rain = 0
KFR1 191621Z 35007KT M02/M05 A3034 RMK A01 T10171049  RH  079%=      5-min Rain = 0
KFR1 191622Z 34007KT M02/M05 A3034 RMK A01 T10171051  RH  078%=      5-min Rain = 0
KFR1 191623Z 34007KT M02/M05 A3034 RMK A01 T10181052  RH  078%=      5-min Rain = 0
KFR1 191624Z 35009KT M02/M05 A3034 RMK A01 T10181051  RH  078%=      5-min Rain = 0
KFR1 191625Z 34006KT M02/M05 A3035 RMK A01 T10191052  RH  078%=      5-min Rain = 0
KFR1 191626Z 34006KT M02/M05 A3034 RMK A01 T10191051  RH  079%=      5-min Rain = 0
KFR1 191627Z 34005KT M02/M05 A3034 RMK A01 T10191051  RH  079%=      5-min Rain = 0
KFR1 191628Z 36009KT M02/M05 A3035 RMK A01 T10191051  RH  079%=      5-min Rain = 0
KFR1 191629Z 35008KT M02/M05 A3035 RMK A01 T10191051  RH  079%=      5-min Rain = 0
KFR1 191630Z 35007KT M02/M05 A3035 RMK A01 T10191051  RH  079%=      5-min Rain = 0
KFR1 191631Z 34005KT M02/M05 A3035 RMK A01 T10191051  RH  079%=      5-min Rain = 0
KFR1 191632Z 35005KT M02/M05 A3034 RMK A01 T10181050  RH  079%=      5-min Rain = 0
KFR1 191633Z 35006KT M02/M05 A3034 RMK A01 T10181050  RH  079%=      5-min Rain = 0
KFR1 191634Z 36005KT M02/M05 A3034 RMK A01 T10181050  RH  079%=      5-min Rain = 0
KFR1 191635Z 02008KT M02/M05 A3035 RMK A01 T10171049  RH  079%=      5-min Rain = 0
KFR1 191636Z 02006KT M02/M05 A3035 RMK A01 T10181051  RH  078%=      5-min Rain = 0
KFR1 191637Z 02005KT M02/M05 A3034 RMK A01 T10181050  RH  079%=      5-min Rain = 0
KFR1 191638Z 36006KT M02/M05 A3034 RMK A01 T10181049  RH  079%=      5-min Rain = 0
KFR1 191639Z 36006KT M02/M05 A3034 RMK A01 T10171049  RH  079%=      5-min Rain = 0
KFR1 191640Z 35007KT M02/M05 A3034 RMK A01 T10171049  RH  079%=      5-min Rain = 0
KFR1 191641Z 01006KT M02/M05 A3035 RMK A01 T10171049  RH  079%=      5-min Rain = 0
KFR1 191642Z 36008KT M02/M05 A3035 RMK A01 T10181050  RH  078%=      5-min Rain = 0
KFR1 191643Z 35007KT M02/M05 A3035 RMK A01 T10181050  RH  079%=      5-min Rain = 0
KFR1 191644Z 35007KT M02/M05 A3035 RMK A01 T10171049  RH  079%=      5-min Rain = 0
KFR1 191645Z 35006KT M02/M05 A3035 RMK A01 T10171049  RH  079%=      5-min Rain = 0
KFR1 191646Z 35005KT M02/M05 A3035 RMK A01 T10161049  RH  079%=      5-min Rain = 0
KFR1 191647Z 34006KT M02/M05 A3034 RMK A01 T10161049  RH  078%=      5-min Rain = 0
KFR1 191648Z 00008KT M02/M05 A3034 RMK A01 T10161048  RH  079%=      5-min Rain = 0
KFR1 191649Z 01007KT M02/M05 A3035 RMK A01 T10151047  RH  079%=      5-min Rain = 0
KFR1 191650Z 02006KT M02/M05 A3035 RMK A01 T10151048  RH  078%=      5-min Rain = 0
KFR1 191651Z 01006KT M02/M05 A3035 RMK A01 T10161050  RH  078%=      5-min Rain = 0
KFR1 191652Z 01005KT M02/M05 A3035 RMK A01 T10151047  RH  079%=      5-min Rain = 0
KFR1 191653Z 36004KT M01/M05 A3035 RMK A01 T10141046  RH  079%=      5-min Rain = 0
KFR1 191654Z 36005KT M01/M05 A3034 RMK A01 T10131047  RH  078%=      5-min Rain = 0
KFR1 191655Z 36005KT M01/M05 A3034 RMK A01 T10131045  RH  078%=      5-min Rain = 0
KFR1 191656Z 01007KT M01/M04 A3035 RMK A01 T10101042  RH  079%=      5-min Rain = 0
KFR1 191657Z 02005KT M01/M05 A3035 RMK A01 T10101045  RH  077%=      5-min Rain = 0
KFR1 191658Z 01004KT M01/M05 A3035 RMK A01 T10111045  RH  077%=      5-min Rain = 0
KFR1 191659Z 00006KT M01/M04 A3035 RMK A01 T10101044  RH  077%=      5-min Rain = 0
KFR1 191700Z 01006KT M01/M05 A3035 RMK A01 T10101046  RH  077%=      5-min Rain = 0
KFR1 191701Z 01006KT M01/M05 A3035 RMK A01 T10121048  RH  076%=      5-min Rain = 0
KFR1 191702Z 01007KT M01/M05 A3035 RMK A01 T10121047  RH  077%=      5-min Rain = 0
KFR1 191703Z 01006KT M01/M05 A3035 RMK A01 T10121047  RH  077%=      5-min Rain = 0
KFR1 191704Z 01006KT M01/M05 A3035 RMK A01 T10131047  RH  077%=      5-min Rain = 0
KFR1 191705Z 02007KT M01/M05 A3035 RMK A01 T10131046  RH  078%=      5-min Rain = 0
KFR1 191706Z 01006KT M01/M05 A3035 RMK A01 T10121045  RH  078%=      5-min Rain = 0
KFR1 191707Z 01005KT M01/M04 A3035 RMK A01 T10111044  RH  078%=      5-min Rain = 0
KFR1 191708Z 01005KT M01/M04 A3035 RMK A01 T10101043  RH  078%=      5-min Rain = 0
KFR1 191709Z 01006KT M01/M04 A3035 RMK A01 T10091043  RH  078%=      5-min Rain = 0
KFR1 191710Z 35006KT M01/M05 A3035 RMK A01 T10091045  RH  077%=      5-min Rain = 0
KFR1 191711Z 36006KT M01/M05 A3035 RMK A01 T10101045  RH  077%=      5-min Rain = 0
KFR1 191712Z 36007KT M01/M04 A3035 RMK A01 T10091044  RH  077%=      5-min Rain = 0
KFR1 191713Z 35006KT M01/M04 A3035 RMK A01 T10091044  RH  077%=      5-min Rain = 0
KFR1 191714Z 36007KT M01/M05 A3035 RMK A01 T10101046  RH  076%=      5-min Rain = 0
KFR1 191715Z 36006KT M01/M05 A3035 RMK A01 T10111047  RH  076%=      5-min Rain = 0
KFR1 191716Z 35007KT M01/M05 A3036 RMK A01 T10111046  RH  077%=      5-min Rain = 0
KFR1 191717Z 35007KT M01/M05 A3035 RMK A01 T10111046  RH  077%=      5-min Rain = 0
KFR1 191718Z 35006KT M01/M05 A3035 RMK A01 T10111046  RH  077%=      5-min Rain = 0
KFR1 191719Z 34005KT M01/M05 A3035 RMK A01 T10101046  RH  077%=      5-min Rain = 0
KFR1 191720Z 35006KT M01/M05 A3035 RMK A01 T10111046  RH  077%=      5-min Rain = 0
KFR1 191721Z 00008KT M01/M05 A3036 RMK A01 T10101045  RH  077%=      5-min Rain = 0
KFR1 191722Z 00008KT M01/M04 A3036 RMK A01 T10091044  RH  077%=      5-min Rain = 0
KFR1 191723Z 36008KT M01/M05 A3036 RMK A01 T10091045  RH  077%=      5-min Rain = 0
KFR1 191724Z 36007KT M01/M05 A3036 RMK A01 T10101045  RH  077%=      5-min Rain = 0
KFR1 191725Z 00008KT M01/M04 A3036 RMK A01 T10091044  RH  077%=      5-min Rain = 0
KFR1 191726Z 00009KT M01/M04 A3036 RMK A01 T10081043  RH  077%=      5-min Rain = 0
KFR1 191727Z 35009KT M01/M04 A3036 RMK A01 T10071043  RH  076%=      5-min Rain = 0
KFR1 191728Z 34007KT M01/M05 A3035 RMK A01 T10081045  RH  076%=      5-min Rain = 0
KFR1 191729Z 34006KT M01/M04 A3035 RMK A01 T10071044  RH  076%=      5-min Rain = 0
KFR1 191730Z 35007KT M01/M04 A3035 RMK A01 T10061042  RH  076%=      5-min Rain = 0
KFR1 191731Z 36006KT M01/M04 A3035 RMK A01 T10051042  RH  076%=      5-min Rain = 0
KFR1 191732Z 01008KT M01/M04 A3035 RMK A01 T10051042  RH  076%=      5-min Rain = 0
KFR1 191733Z 01007KT M00/M04 A3035 RMK A01 T10041041  RH  076%=      5-min Rain = 0
KFR1 191734Z 01008KT M01/M04 A3035 RMK A01 T10051043  RH  075%=      5-min Rain = 0
KFR1 191735Z 01008KT M01/M04 A3035 RMK A01 T10051043  RH  076%=      5-min Rain = 0
KFR1 191736Z 00006KT M01/M04 A3035 RMK A01 T10051042  RH  076%=      5-min Rain = 0
KFR1 191737Z 01007KT M00/M04 A3035 RMK A01 T10031039  RH  076%=      5-min Rain = 0
KFR1 191738Z 01009KT M00/M04 A3035 RMK A01 T10021040  RH  076%=      5-min Rain = 0
KFR1 191739Z 01009KT M00/M04 A3035 RMK A01 T10011039  RH  075%=      5-min Rain = 0
KFR1 191740Z 01009KT 00/04 A3035 RMK A01 T00000-38  RH  075%=      5-min Rain = 0
KFR1 191741Z 02010KT 00/M04 A3035 RMK A01 T00021038  RH  075%=      5-min Rain = 0
KFR1 191742Z 01009KT 00/M04 A3035 RMK A01 T00021040  RH  074%=      5-min Rain = 0
KFR1 191743Z 01008KT 00/04 A3035 RMK A01 T00000-41  RH  074%=      5-min Rain = 0
KFR1 191744Z 01009KT 00/M04 A3035 RMK A01 T00011040  RH  074%=      5-min Rain = 0
KFR1 191745Z 01010KT 00/M04 A3035 RMK A01 T00031038  RH  074%=      5-min Rain = 0
KFR1 191746Z 01009KT 00/M04 A3035 RMK A01 T00031039  RH  073%=      5-min Rain = 0
KFR1 191747Z 01010KT 00/M04 A3035 RMK A01 T00031040  RH  073%=      5-min Rain = 0
KFR1 191748Z 01011KT 00/M04 A3035 RMK A01 T00011042  RH  073%=      5-min Rain = 0
KFR1 191749Z 01011KT 00/M04 A3035 RMK A01 T00011042  RH  073%=      5-min Rain = 0
KFR1 191750Z 01010KT 00/M04 A3035 RMK A01 T00021041  RH  073%=      5-min Rain = 0
KFR1 191751Z 01011KT 00/M04 A3035 RMK A01 T00021041  RH  073%=      5-min Rain = 0
KFR1 191752Z 01009KT 00/M04 A3035 RMK A01 T00021041  RH  073%=      5-min Rain = 0
KFR1 191753Z 01011KT 00/M04 A3035 RMK A01 T00021039  RH  073%=      5-min Rain = 0
KFR1 191754Z 00010KT 00/M04 A3035 RMK A01 T00041038  RH  073%=      5-min Rain = 0
KFR1 191755Z 01009KT 00/M04 A3035 RMK A01 T00041038  RH  073%=      5-min Rain = 0
KFR1 191756Z 01010KT 00/M04 A3035 RMK A01 T00041038  RH  073%=      5-min Rain = 0
KFR1 191757Z 01010KT 00/M04 A3035 RMK A01 T00031040  RH  073%=      5-min Rain = 0
KFR1 191758Z 01010KT 00/M04 A3035 RMK A01 T00031041  RH  073%=      5-min Rain = 0
KFR1 191759Z 01007KT 00/M04 A3035 RMK A01 T00021040  RH  073%=      5-min Rain = 0
KFR1 191800Z 01008KT 00/M04 A3034 RMK A01 T00041036  RH  074%=      5-min Rain = 0
KFR1 191801Z 01010KT 01/M04 A3034 RMK A01 T00051037  RH  073%=      5-min Rain = 0
KFR1 191802Z 01009KT 00/M04 A3034 RMK A01 T00031039  RH  073%=      5-min Rain = 0
KFR1 191803Z 36009KT 00/M04 A3034 RMK A01 T00031038  RH  074%=      5-min Rain = 0
KFR1 191804Z 36011KT 01/M04 A3034 RMK A01 T00051037  RH  073%=      5-min Rain = 0
KFR1 191805Z 00012KT 01/M04 A3034 RMK A01 T00051039  RH  073%=      5-min Rain = 0
KFR1 191806Z 01010KT 00/M04 A3034 RMK A01 T00041039  RH  073%=      5-min Rain = 0
KFR1 191807Z 00010KT 00/M04 A3034 RMK A01 T00041039  RH  073%=      5-min Rain = 0
KFR1 191808Z 01011KT 00/M04 A3034 RMK A01 T00041038  RH  073%=      5-min Rain = 0
KFR1 191809Z 00010KT 01/M04 A3034 RMK A01 T00051038  RH  073%=      5-min Rain = 0
KFR1 191810Z 01010G15KT 01/M04 A3034 RMK A01 T00051037  RH  073%=      5-min Rain = 0
KFR1 191811Z 00009KT 01/M04 A3034 RMK A01 T00051037  RH  073%=      5-min Rain = 0
KFR1 191812Z 01010KT 01/M04 A3034 RMK A01 T00061036  RH  073%=      5-min Rain = 0
KFR1 191813Z 00010KT 01/M04 A3034 RMK A01 T00061037  RH  073%=      5-min Rain = 0
KFR1 191814Z 00011KT 01/M04 A3034 RMK A01 T00061038  RH  073%=      5-min Rain = 0
KFR1 191815Z 00008KT 00/M04 A3034 RMK A01 T00041039  RH  073%=      5-min Rain = 0
KFR1 191816Z 01009KT 01/M04 A3034 RMK A01 T00061035  RH  074%=      5-min Rain = 0
KFR1 191817Z 00009KT 01/M03 A3034 RMK A01 T00081034  RH  073%=      5-min Rain = 0
KFR1 191818Z 00007KT 01/M04 A3034 RMK A01 T00071036  RH  073%=      5-min Rain = 0
KFR1 191819Z 36010KT 01/M04 A3034 RMK A01 T00081035  RH  073%=      5-min Rain = 0
KFR1 191820Z 00009KT 01/M04 A3034 RMK A01 T00081037  RH  072%=      5-min Rain = 0
KFR1 191821Z 00008KT 01/M04 A3034 RMK A01 T00071038  RH  072%=      5-min Rain = 0
KFR1 191822Z 00011KT 01/M04 A3034 RMK A01 T00081037  RH  072%=      5-min Rain = 0
KFR1 191823Z 00011KT 01/M04 A3034 RMK A01 T00081037  RH  072%=      5-min Rain = 0
KFR1 191824Z 36009KT 01/M04 A3034 RMK A01 T00081037  RH  072%=      5-min Rain = 0
KFR1 191825Z 35010KT 01/M04 A3034 RMK A01 T00081037  RH  072%=      5-min Rain = 0
KFR1 191826Z 35008KT 01/M04 A3034 RMK A01 T00071039  RH  071%=      5-min Rain = 0
KFR1 191827Z 35008KT 01/M04 A3033 RMK A01 T00101035  RH  072%=      5-min Rain = 0
KFR1 191828Z 35008KT 01/M03 A3033 RMK A01 T00131033  RH  071%=      5-min Rain = 0
KFR1 191829Z 01007KT 02/M03 A3033 RMK A01 T00151034  RH  070%=      5-min Rain = 0
KFR1 191830Z 01008KT 02/M04 A3033 RMK A01 T00151035  RH  069%=      5-min Rain = 0
KFR1 191831Z 36008KT 01/M04 A3033 RMK A01 T00141036  RH  069%=      5-min Rain = 0
KFR1 191832Z 35011KT 01/M04 A3033 RMK A01 T00141035  RH  070%=      5-min Rain = 0
KFR1 191833Z 36011KT 01/M04 A3033 RMK A01 T00121038  RH  069%=      5-min Rain = 0
KFR1 191834Z 35009KT 01/M04 A3033 RMK A01 T00101039  RH  070%=      5-min Rain = 0
KFR1 191835Z 35006KT 01/M04 A3033 RMK A01 T00091039  RH  071%=      5-min Rain = 0
KFR1 191836Z 36009KT 01/M04 A3033 RMK A01 T00101036  RH  071%=      5-min Rain = 0
KFR1 191837Z 36009KT 01/M03 A3033 RMK A01 T00131033  RH  072%=      5-min Rain = 0
KFR1 191838Z 36009KT 01/M03 A3033 RMK A01 T00141033  RH  071%=      5-min Rain = 0
KFR1 191839Z 00010KT 01/M03 A3033 RMK A01 T00131034  RH  071%=      5-min Rain = 0
KFR1 191840Z 00009KT 01/M04 A3033 RMK A01 T00101035  RH  072%=      5-min Rain = 0
KFR1 191841Z 36009KT 01/M04 A3033 RMK A01 T00091036  RH  072%=      5-min Rain = 0
KFR1 191842Z 35009KT 01/M04 A3033 RMK A01 T00081036  RH  072%=      5-min Rain = 0
KFR1 191843Z 33008KT 01/M04 A3033 RMK A01 T00091036  RH  072%=      5-min Rain = 0
KFR1 191844Z 35010KT 01/M03 A3033 RMK A01 T00131033  RH  071%=      5-min Rain = 0
KFR1 191845Z 35009KT 01/M04 A3033 RMK A01 T00131035  RH  071%=      5-min Rain = 0
KFR1 191846Z 35009KT 01/M04 A3033 RMK A01 T00111036  RH  071%=      5-min Rain = 0
KFR1 191847Z 35010KT 01/M04 A3033 RMK A01 T00121035  RH  071%=      5-min Rain = 0
KFR1 191848Z 36010KT 01/M04 A3033 RMK A01 T00121035  RH  071%=      5-min Rain = 0
KFR1 191849Z 36008KT 01/M03 A3033 RMK A01 T00131034  RH  071%=      5-min Rain = 0
KFR1 191850Z 35009KT 01/M03 A3033 RMK A01 T00131034  RH  071%=      5-min Rain = 0
KFR1 191851Z 35008KT 01/M03 A3033 RMK A01 T00121034  RH  071%=      5-min Rain = 0
KFR1 191852Z 00009KT 01/M04 A3033 RMK A01 T00121035  RH  071%=      5-min Rain = 0
KFR1 191853Z 00009KT 01/M03 A3033 RMK A01 T00111034  RH  072%=      5-min Rain = 0
KFR1 191854Z 36007KT 01/M03 A3033 RMK A01 T00111034  RH  072%=      5-min Rain = 0
KFR1 191855Z 00009KT 01/M03 A3033 RMK A01 T00121033  RH  072%=      5-min Rain = 0
KFR1 191856Z 00009KT 01/M03 A3033 RMK A01 T00141031  RH  072%=      5-min Rain = 0
KFR1 191857Z 00009KT 02/M03 A3032 RMK A01 T00161031  RH  071%=      5-min Rain = 0
KFR1 191858Z 00011G16KT 01/M03 A3032 RMK A01 T00141034  RH  070%=      5-min Rain = 0
KFR1 191859Z 36014KT 01/M04 A3032 RMK A01 T00111038  RH  070%=      5-min Rain = 0
KFR1 191900Z 00012KT 01/M04 A3032 RMK A01 T00081040  RH  071%=      5-min Rain = 0
KFR1 191901Z 00011KT 01/M04 A3032 RMK A01 T00061039  RH  072%=      5-min Rain = 0
KFR1 191902Z 01009KT 01/M03 A3032 RMK A01 T00101034  RH  072%=      5-min Rain = 0
KFR1 191903Z 02009KT 02/M03 A3032 RMK A01 T00161030  RH  071%=      5-min Rain = 0
KFR1 191904Z 02007KT 02/M03 A3032 RMK A01 T00181033  RH  069%=      5-min Rain = 0
KFR1 191905Z 01009KT 02/M03 A3031 RMK A01 T00201032  RH  068%=      5-min Rain = 0
KFR1 191906Z 36012KT 02/M04 A3031 RMK A01 T00181035  RH  068%=      5-min Rain = 0
KFR1 191907Z 01009G14KT 02/M04 A3031 RMK A01 T00161036  RH  068%=      5-min Rain = 0
KFR1 191908Z 01010KT 02/M03 A3031 RMK A01 T00171033  RH  069%=      5-min Rain = 0
KFR1 191909Z 00011KT 02/M03 A3031 RMK A01 T00181032  RH  069%=      5-min Rain = 0
KFR1 191910Z 00012KT 02/M04 A3031 RMK A01 T00161035  RH  069%=      5-min Rain = 0
KFR1 191911Z 35011KT 01/M04 A3031 RMK A01 T00131037  RH  069%=      5-min Rain = 0
KFR1 191912Z 00010KT 01/M04 A3031 RMK A01 T00121036  RH  070%=      5-min Rain = 0
KFR1 191913Z 36006KT 01/M03 A3031 RMK A01 T00131034  RH  071%=      5-min Rain = 0
KFR1 191914Z 34008KT 02/M03 A3031 RMK A01 T00161032  RH  070%=      5-min Rain = 0
KFR1 191915Z 34008KT 02/M03 A3031 RMK A01 T00191032  RH  069%=      5-min Rain = 0
KFR1 191916Z 35010KT 02/M03 A3031 RMK A01 T00191032  RH  068%=      5-min Rain = 0
KFR1 191917Z 00009KT 02/M03 A3031 RMK A01 T00211031  RH  068%=      5-min Rain = 0
KFR1 191918Z 00009KT 02/M03 A3031 RMK A01 T00221033  RH  067%=      5-min Rain = 0
KFR1 191919Z 00009KT 02/M04 A3031 RMK A01 T00201035  RH  067%=      5-min Rain = 0
KFR1 191920Z 34008KT 02/M03 A3031 RMK A01 T00201034  RH  068%=      5-min Rain = 0
KFR1 191921Z 00010KT 02/M03 A3031 RMK A01 T00211032  RH  068%=      5-min Rain = 0
KFR1 191922Z 00010KT 02/M03 A3031 RMK A01 T00221031  RH  068%=      5-min Rain = 0
KFR1 191923Z 36009KT 02/M03 A3031 RMK A01 T00201034  RH  067%=      5-min Rain = 0
KFR1 191924Z 35009KT 02/M04 A3031 RMK A01 T00181036  RH  067%=      5-min Rain = 0
KFR1 191925Z 00010KT 02/M04 A3031 RMK A01 T00171036  RH  068%=      5-min Rain = 0
KFR1 191926Z 35009KT 02/M03 A3031 RMK A01 T00161034  RH  069%=      5-min Rain = 0
KFR1 191927Z 34009KT 02/M03 A3031 RMK A01 T00171034  RH  069%=      5-min Rain = 0
KFR1 191928Z 34009KT 02/M04 A3031 RMK A01 T00171035  RH  069%=      5-min Rain = 0
KFR1 191929Z 33008KT 02/M04 A3031 RMK A01 T00161036  RH  068%=      5-min Rain = 0
KFR1 191930Z 35008KT 02/M03 A3031 RMK A01 T00191031  RH  069%=      5-min Rain = 0
KFR1 191931Z 35009KT 02/M03 A3031 RMK A01 T00241028  RH  069%=      5-min Rain = 0
KFR1 191932Z 35010KT 03/M03 A3031 RMK A01 T00251029  RH  067%=      5-min Rain = 0
KFR1 191933Z 34008KT 03/M03 A3031 RMK A01 T00261031  RH  066%=      5-min Rain = 0
KFR1 191934Z 34008G13KT 03/M03 A303 RMK A01 T00281030  RH  065%=      5-min Rain = 0
KFR1 191935Z 32009KT 03/M03 A303 RMK A01 T00301031  RH  064%=      5-min Rain = 0
KFR1 191936Z 32009KT 03/M03 A303 RMK A01 T00281033  RH  064%=      5-min Rain = 0
KFR1 191937Z 34008KT 03/M03 A303 RMK A01 T00261034  RH  064%=      5-min Rain = 0
KFR1 191938Z 35010KT 03/M03 A303 RMK A01 T00251032  RH  066%=      5-min Rain = 0
KFR1 191939Z 36010KT 03/M03 A303 RMK A01 T00251032  RH  066%=      5-min Rain = 0
KFR1 191940Z 36010KT 02/M03 A303 RMK A01 T00231034  RH  066%=      5-min Rain = 0
KFR1 191941Z 35008KT 02/M04 A303 RMK A01 T00211036  RH  066%=      5-min Rain = 0
KFR1 191942Z 35010KT 02/M03 A303 RMK A01 T00201034  RH  067%=      5-min Rain = 0
KFR1 191943Z 34011KT 02/M03 A303 RMK A01 T00211033  RH  067%=      5-min Rain = 0
KFR1 191944Z 32009KT 02/M03 A303 RMK A01 T00231033  RH  067%=      5-min Rain = 0
KFR1 191945Z 34009KT 02/M03 A303 RMK A01 T00241032  RH  066%=      5-min Rain = 0
KFR1 191946Z 35010KT 02/M03 A303 RMK A01 T00241032  RH  067%=      5-min Rain = 0
KFR1 191947Z 35008KT 02/M03 A303 RMK A01 T00221034  RH  067%=      5-min Rain = 0
KFR1 191948Z 35010KT 02/M04 A303 RMK A01 T00201036  RH  067%=      5-min Rain = 0
KFR1 191949Z 35010KT 02/M04 A303 RMK A01 T00181035  RH  068%=      5-min Rain = 0
KFR1 191950Z 35011KT 02/M03 A303 RMK A01 T00191034  RH  068%=      5-min Rain = 0
KFR1 191951Z 35011KT 02/M03 A303 RMK A01 T00201033  RH  068%=      5-min Rain = 0
KFR1 191952Z 35007KT 02/M03 A3029 RMK A01 T00191034  RH  068%=      5-min Rain = 0
KFR1 191953Z 35007KT 02/M03 A3029 RMK A01 T00201032  RH  068%=      5-min Rain = 0
KFR1 191954Z 36010KT 02/M03 A3029 RMK A01 T00231031  RH  067%=      5-min Rain = 0
KFR1 191955Z 35008KT 02/M03 A3029 RMK A01 T00221032  RH  067%=      5-min Rain = 0
KFR1 191956Z 35010KT 02/M03 A3029 RMK A01 T00241031  RH  067%=      5-min Rain = 0
KFR1 191957Z 00009KT 02/M03 A3029 RMK A01 T00241032  RH  066%=      5-min Rain = 0
KFR1 191958Z 35009KT 02/M03 A3029 RMK A01 T00241032  RH  066%=      5-min Rain = 0
KFR1 191959Z 34008KT 03/M03 A3029 RMK A01 T00261031  RH  066%=      5-min Rain = 0
KFR1 192000Z 35007KT 03/M03 A3029 RMK A01 T00271031  RH  066%=      5-min Rain = 0
KFR1 192001Z 34006KT 03/M03 A3029 RMK A01 T00271032  RH  065%=      5-min Rain = 0
KFR1 192002Z 34007KT 03/M03 A3029 RMK A01 T00281030  RH  066%=      5-min Rain = 0
KFR1 192003Z 35009KT 03/M03 A3029 RMK A01 T00281030  RH  066%=      5-min Rain = 0
KFR1 192004Z 35007KT 03/M03 A3029 RMK A01 T00281031  RH  065%=      5-min Rain = 0
KFR1 192005Z 35006KT 03/M03 A3029 RMK A01 T00301029  RH  065%=      5-min Rain = 0
KFR1 192006Z 33007KT 03/M03 A3029 RMK A01 T00321028  RH  065%=      5-min Rain = 0
KFR1 192007Z 33007KT 03/M03 A3028 RMK A01 T00331029  RH  064%=      5-min Rain = 0
KFR1 192008Z 33006KT 03/M03 A3028 RMK A01 T00331029  RH  064%=      5-min Rain = 0
KFR1 192009Z 32010KT 03/M03 A3028 RMK A01 T00331030  RH  063%=      5-min Rain = 0
KFR1 192010Z 32009KT 03/M03 A3028 RMK A01 T00311033  RH  063%=      5-min Rain = 0
KFR1 192011Z 33008KT 03/M03 A3028 RMK A01 T00301031  RH  064%=      5-min Rain = 0
KFR1 192012Z 33006KT 03/M03 A3028 RMK A01 T00301030  RH  065%=      5-min Rain = 0
KFR1 192013Z 34006G11KT 03/M03 A3028 RMK A01 T00341026  RH  065%=      5-min Rain = 0
KFR1 192014Z 34007KT 04/M03 A3028 RMK A01 T00371027  RH  063%=      5-min Rain = 0
KFR1 192015Z 33006KT 04/M03 A3028 RMK A01 T00381028  RH  062%=      5-min Rain = 0
KFR1 192016Z 32009KT 04/M03 A3028 RMK A01 T00391029  RH  061%=      5-min Rain = 0
KFR1 192017Z 33008KT 04/M03 A3028 RMK A01 T00351032  RH  061%=      5-min Rain = 0
KFR1 192018Z 35005KT 03/M03 A3028 RMK A01 T00341029  RH  063%=      5-min Rain = 0
KFR1 192019Z 34006KT 04/M03 A3028 RMK A01 T00381026  RH  063%=      5-min Rain = 0
KFR1 192020Z 34009KT 04/M03 A3028 RMK A01 T00391027  RH  062%=      5-min Rain = 0
KFR1 192021Z 34007KT 04/M03 A3028 RMK A01 T00371031  RH  062%=      5-min Rain = 0
KFR1 192022Z 34006KT 04/M03 A3028 RMK A01 T00351029  RH  063%=      5-min Rain = 0
KFR1 192023Z 35006KT 04/M03 A3028 RMK A01 T00371028  RH  063%=      5-min Rain = 0
KFR1 192024Z 35008KT 04/M03 A3028 RMK A01 T00361029  RH  062%=      5-min Rain = 0
KFR1 192025Z 34007KT 03/M03 A3028 RMK A01 T00341031  RH  062%=      5-min Rain = 0
KFR1 192026Z 34007KT 03/M03 A3028 RMK A01 T00341029  RH  063%=      5-min Rain = 0
KFR1 192027Z 35008KT 04/M03 A3028 RMK A01 T00351028  RH  063%=      5-min Rain = 0
KFR1 192028Z 34006KT 03/M03 A3028 RMK A01 T00341030  RH  063%=      5-min Rain = 0
KFR1 192029Z 34007KT 03/M03 A3027 RMK A01 T00331030  RH  063%=      5-min Rain = 0
KFR1 192030Z 32008KT 03/M03 A3027 RMK A01 T00341030  RH  063%=      5-min Rain = 0
KFR1 192031Z 31008KT 03/M03 A3027 RMK A01 T00341030  RH  063%=      5-min Rain = 0
KFR1 192032Z 31007KT 03/M03 A3027 RMK A01 T00331031  RH  063%=      5-min Rain = 0
KFR1 192033Z 33005KT 04/M03 A3027 RMK A01 T00351026  RH  064%=      5-min Rain = 0
KFR1 192034Z 32005KT 04/M03 A3027 RMK A01 T00381026  RH  063%=      5-min Rain = 0
KFR1 192035Z 31008KT 04/M03 A3027 RMK A01 T00401025  RH  062%=      5-min Rain = 0
KFR1 192036Z 33008KT 04/M03 A3027 RMK A01 T00411025  RH  062%=      5-min Rain = 0
KFR1 192037Z 34008KT 04/M03 A3027 RMK A01 T00401028  RH  061%=      5-min Rain = 0
KFR1 192038Z 34006KT 04/M03 A3027 RMK A01 T00381030  RH  061%=      5-min Rain = 0
KFR1 192039Z 33007KT 04/M03 A3027 RMK A01 T00381029  RH  062%=      5-min Rain = 0
KFR1 192040Z 32006KT 04/M03 A3027 RMK A01 T00391028  RH  062%=      5-min Rain = 0
KFR1 192041Z 33007KT 04/M03 A3027 RMK A01 T00401029  RH  061%=      5-min Rain = 0
KFR1 192042Z 35005KT 04/M03 A3027 RMK A01 T00381030  RH  061%=      5-min Rain = 0
KFR1 192043Z 33008KT 04/M03 A3027 RMK A01 T00381030  RH  061%=      5-min Rain = 0
KFR1 192044Z 36007KT 04/M03 A3027 RMK A01 T00381030  RH  061%=      5-min Rain = 0
KFR1 192045Z 34008KT 04/M03 A3027 RMK A01 T00371028  RH  062%=      5-min Rain = 0
KFR1 192046Z 34008KT 04/M03 A3027 RMK A01 T00381028  RH  062%=      5-min Rain = 0
KFR1 192047Z 34007KT 04/M03 A3027 RMK A01 T00391029  RH  061%=      5-min Rain = 0
KFR1 192048Z 35009KT 04/M03 A3027 RMK A01 T00391030  RH  060%=      5-min Rain = 0
KFR1 192049Z 35007KT 04/M03 A3027 RMK A01 T00361033  RH  060%=      5-min Rain = 0
KFR1 192050Z 35007KT 04/M03 A3027 RMK A01 T00351032  RH  061%=      5-min Rain = 0
KFR1 192051Z 01006KT 04/M03 A3027 RMK A01 T00361030  RH  062%=      5-min Rain = 0
KFR1 192052Z 35006KT 04/M03 A3027 RMK A01 T00371028  RH  062%=      5-min Rain = 0
KFR1 192053Z 35007KT 04/M03 A3027 RMK A01 T00381028  RH  062%=      5-min Rain = 0
KFR1 192054Z 35006KT 04/M03 A3027 RMK A01 T00381028  RH  062%=      5-min Rain = 0
KFR1 192055Z 35007KT 04/M03 A3027 RMK A01 T00381028  RH  062%=      5-min Rain = 0
KFR1 192056Z 35007KT 04/M03 A3027 RMK A01 T00401027  RH  062%=      5-min Rain = 0
KFR1 192057Z 35008KT 04/M03 A3027 RMK A01 T00391028  RH  062%=      5-min Rain = 0
KFR1 192058Z 35008KT 04/M03 A3026 RMK A01 T00391029  RH  061%=      5-min Rain = 0
KFR1 192059Z 35009KT 04/M03 A3026 RMK A01 T00401029  RH  061%=      5-min Rain = 0
KFR1 192100Z 35008KT 04/M03 A3026 RMK A01 T00401029  RH  061%=      5-min Rain = 0
KFR1 192101Z 35009KT 04/M03 A3026 RMK A01 T00401028  RH  061%=      5-min Rain = 0
KFR1 192102Z 35008KT 04/M03 A3026 RMK A01 T00401027  RH  061%=      5-min Rain = 0
KFR1 192103Z 35007KT 04/M03 A3027 RMK A01 T00421027  RH  061%=      5-min Rain = 0
KFR1 192104Z 36007KT 04/M03 A3027 RMK A01 T00431027  RH  061%=      5-min Rain = 0
KFR1 192105Z 33007KT 04/M03 A3027 RMK A01 T00421027  RH  060%=      5-min Rain = 0
KFR1 192106Z 33007KT 04/M03 A3027 RMK A01 T00431027  RH  060%=      5-min Rain = 0
KFR1 192107Z 33007KT 05/M03 A3026 RMK A01 T00451026  RH  060%=      5-min Rain = 0
KFR1 192108Z 35006KT 05/M03 A3026 RMK A01 T00461026  RH  059%=      5-min Rain = 0
KFR1 192109Z 34006KT 05/M03 A3026 RMK A01 T00471026  RH  059%=      5-min Rain = 0
KFR1 192110Z 36007KT 05/M03 A3026 RMK A01 T00471027  RH  059%=      5-min Rain = 0
KFR1 192111Z 35007KT 05/M03 A3026 RMK A01 T00451028  RH  059%=      5-min Rain = 0
KFR1 192112Z 36007KT 04/M03 A3026 RMK A01 T00431028  RH  060%=      5-min Rain = 0
KFR1 192113Z 01005KT 04/M03 A3026 RMK A01 T00431028  RH  060%=      5-min Rain = 0
KFR1 192114Z 00007KT 04/M03 A3026 RMK A01 T00431027  RH  060%=      5-min Rain = 0
KFR1 192115Z 01007KT 04/M03 A3026 RMK A01 T00441027  RH  060%=      5-min Rain = 0
KFR1 192116Z 36007KT 04/M03 A3026 RMK A01 T00431028  RH  060%=      5-min Rain = 0
KFR1 192117Z 36008KT 04/M03 A3026 RMK A01 T00431027  RH  060%=      5-min Rain = 0
KFR1 192118Z 36007KT 04/M03 A3026 RMK A01 T00441027  RH  060%=      5-min Rain = 0
KFR1 192119Z 36008KT 05/M03 A3026 RMK A01 T00451027  RH  059%=      5-min Rain = 0
KFR1 192120Z 36007KT 05/M03 A3026 RMK A01 T00451028  RH  059%=      5-min Rain = 0
KFR1 192121Z 35006KT 05/M03 A3026 RMK A01 T00451026  RH  060%=      5-min Rain = 0
KFR1 192122Z 35006KT 05/M02 A3026 RMK A01 T00471023  RH  060%=      5-min Rain = 0
KFR1 192123Z 35007KT 05/M02 A3026 RMK A01 T00491024  RH  059%=      5-min Rain = 0
KFR1 192124Z 34008KT 05/M03 A3026 RMK A01 T00501026  RH  058%=      5-min Rain = 0
KFR1 192125Z 00006KT 05/M03 A3026 RMK A01 T00491027  RH  058%=      5-min Rain = 0
KFR1 192126Z 00007KT 05/M03 A3026 RMK A01 T00481026  RH  059%=      5-min Rain = 0
KFR1 192127Z 01006KT 05/M03 A3026 RMK A01 T00471026  RH  059%=      5-min Rain = 0
KFR1 192128Z 35006KT 05/M03 A3026 RMK A01 T00461026  RH  059%=      5-min Rain = 0
KFR1 192129Z 35005KT 05/M03 A3026 RMK A01 T00461025  RH  060%=      5-min Rain = 0
KFR1 192130Z 36006KT 05/M02 A3026 RMK A01 T00481024  RH  060%=      5-min Rain = 0
KFR1 192131Z 00006KT 05/M02 A3026 RMK A01 T00501023  RH  059%=      5-min Rain = 0
KFR1 192132Z 00006KT 05/M02 A3026 RMK A01 T00511024  RH  058%=      5-min Rain = 0
KFR1 192133Z 00005KT 05/M03 A3026 RMK A01 T00501026  RH  058%=      5-min Rain = 0
KFR1 192134Z 36005KT 05/M03 A3026 RMK A01 T00491025  RH  059%=      5-min Rain = 0
KFR1 192135Z 35004KT 05/M02 A3026 RMK A01 T00511023  RH  059%=      5-min Rain = 0
KFR1 192136Z 34008KT 05/M02 A3026 RMK A01 T00531023  RH  058%=      5-min Rain = 0
KFR1 192137Z 35009KT 05/M02 A3026 RMK A01 T00531024  RH  057%=      5-min Rain = 0
KFR1 192138Z 36009KT 05/M03 A3026 RMK A01 T00521025  RH  057%=      5-min Rain = 0
KFR1 192139Z 36009KT 05/M03 A3026 RMK A01 T00521025  RH  057%=      5-min Rain = 0
KFR1 192140Z 36007KT 05/M03 A3026 RMK A01 T00511026  RH  058%=      5-min Rain = 0
KFR1 192141Z 35007KT 05/M03 A3026 RMK A01 T00511025  RH  058%=      5-min Rain = 0
KFR1 192142Z 36006KT 05/M02 A3026 RMK A01 T00511024  RH  058%=      5-min Rain = 0
KFR1 192143Z 00005KT 05/M03 A3026 RMK A01 T00511025  RH  058%=      5-min Rain = 0
KFR1 192144Z 36007KT 05/M02 A3026 RMK A01 T00521024  RH  058%=      5-min Rain = 0
KFR1 192145Z 36009KT 05/M02 A3026 RMK A01 T00521024  RH  058%=      5-min Rain = 0
KFR1 192146Z 36009KT 05/M03 A3026 RMK A01 T00521026  RH  057%=      5-min Rain = 0
KFR1 192147Z 01007KT 05/M03 A3026 RMK A01 T00521027  RH  057%=      5-min Rain = 0
KFR1 192148Z 36007KT 05/M03 A3026 RMK A01 T00511026  RH  058%=      5-min Rain = 0
KFR1 192149Z 00006KT 05/M02 A3026 RMK A01 T00511024  RH  058%=      5-min Rain = 0
KFR1 192150Z 01007KT 05/M03 A3026 RMK A01 T00511025  RH  058%=      5-min Rain = 0
KFR1 192151Z 00007KT 05/M03 A3026 RMK A01 T00521025  RH  057%=      5-min Rain = 0
KFR1 192152Z 00006KT 05/M03 A3026 RMK A01 T00521026  RH  057%=      5-min Rain = 0
KFR1 192153Z 00007KT 05/M02 A3026 RMK A01 T00521024  RH  058%=      5-min Rain = 0
KFR1 192154Z 01005KT 05/M02 A3025 RMK A01 T00521023  RH  058%=      5-min Rain = 0
KFR1 192155Z 00006KT 05/M02 A3026 RMK A01 T00531021  RH  059%=      5-min Rain = 0
KFR1 192156Z 35005KT 05/M02 A3025 RMK A01 T00541021  RH  059%=      5-min Rain = 0
KFR1 192157Z 36005KT 05/M02 A3025 RMK A01 T00541021  RH  058%=      5-min Rain = 0
KFR1 192158Z 35006KT 05/M02 A3025 RMK A01 T00541023  RH  058%=      5-min Rain = 0
KFR1 192159Z 35005KT 05/M03 A3026 RMK A01 T00541025  RH  057%=      5-min Rain = 0
KFR1 192200Z 36005KT 06/M03 A3026 RMK A01 T00551025  RH  057%=      5-min Rain = 0
KFR1 192201Z 35006KT 06/M02 A3026 RMK A01 T00551024  RH  057%=      5-min Rain = 0
KFR1 192202Z 34004KT 06/M03 A3026 RMK A01 T00551025  RH  056%=      5-min Rain = 0
KFR1 192203Z 35006KT 06/M02 A3026 RMK A01 T00571024  RH  056%=      5-min Rain = 0
KFR1 192204Z 34006KT 06/M03 A3026 RMK A01 T00581025  RH  055%=      5-min Rain = 0
KFR1 192205Z 35008KT 06/M02 A3026 RMK A01 T00571024  RH  056%=      5-min Rain = 0
KFR1 192206Z 35006KT 06/M02 A3026 RMK A01 T00571024  RH  056%=      5-min Rain = 0
KFR1 192207Z 36009KT 06/M02 A3026 RMK A01 T00561024  RH  056%=      5-min Rain = 0
KFR1 192208Z 00009KT 06/M03 A3026 RMK A01 T00561025  RH  056%=      5-min Rain = 0
KFR1 192209Z 01007KT 06/M03 A3026 RMK A01 T00551025  RH  056%=      5-min Rain = 0
KFR1 192210Z 01006KT 06/M02 A3026 RMK A01 T00551024  RH  057%=      5-min Rain = 0
KFR1 192211Z 01006KT 05/M02 A3026 RMK A01 T00541023  RH  057%=      5-min Rain = 0
KFR1 192212Z 01007KT 05/M02 A3026 RMK A01 T00541022  RH  058%=      5-min Rain = 0
KFR1 192213Z 01006KT 05/M02 A3026 RMK A01 T00531024  RH  057%=      5-min Rain = 0
KFR1 192214Z 01006KT 05/M02 A3026 RMK A01 T00531024  RH  057%=      5-min Rain = 0
KFR1 192215Z 01005KT 05/M02 A3026 RMK A01 T00531024  RH  058%=      5-min Rain = 0
KFR1 192216Z 36006KT 06/M02 A3026 RMK A01 T00551022  RH  058%=      5-min Rain = 0
KFR1 192217Z 36008KT 06/M02 A3026 RMK A01 T00561023  RH  057%=      5-min Rain = 0
KFR1 192218Z 35009KT 06/M02 A3026 RMK A01 T00551024  RH  056%=      5-min Rain = 0
KFR1 192219Z 35006KT 06/M03 A3026 RMK A01 T00551026  RH  056%=      5-min Rain = 0
KFR1 192220Z 36007KT 06/M03 A3026 RMK A01 T00561026  RH  056%=      5-min Rain = 0
KFR1 192221Z 36006KT 06/M03 A3026 RMK A01 T00561026  RH  055%=      5-min Rain = 0
KFR1 192222Z 00005KT 06/M03 A3026 RMK A01 T00561026  RH  055%=      5-min Rain = 0
KFR1 192223Z 34006KT 06/M03 A3026 RMK A01 T00571026  RH  055%=      5-min Rain = 0
KFR1 192224Z 01004KT 06/M03 A3026 RMK A01 T00571026  RH  055%=      5-min Rain = 0
KFR1 192225Z 01006KT 06/M02 A3026 RMK A01 T00571024  RH  056%=      5-min Rain = 0
KFR1 192226Z 02006KT 06/M03 A3026 RMK A01 T00571025  RH  056%=      5-min Rain = 0
KFR1 192227Z 00007KT 06/M03 A3026 RMK A01 T00561026  RH  055%=      5-min Rain = 0
KFR1 192228Z 01007KT 06/M03 A3026 RMK A01 T00561026  RH  056%=      5-min Rain = 0
KFR1 192229Z 01007KT 06/M03 A3026 RMK A01 T00551026  RH  056%=      5-min Rain = 0
KFR1 192230Z 00007KT 06/M03 A3026 RMK A01 T00561026  RH  056%=      5-min Rain = 0
KFR1 192231Z 01007KT 06/M03 A3026 RMK A01 T00551026  RH  056%=      5-min Rain = 0
KFR1 192232Z 01006KT 06/M03 A3026 RMK A01 T00551027  RH  055%=      5-min Rain = 0
KFR1 192233Z 01005KT 06/M03 A3026 RMK A01 T00551027  RH  055%=      5-min Rain = 0
KFR1 192234Z 01005KT 06/M03 A3026 RMK A01 T00561027  RH  055%=      5-min Rain = 0
KFR1 192235Z 00005KT 06/M03 A3026 RMK A01 T00561026  RH  056%=      5-min Rain = 0
KFR1 192236Z 01005KT 06/M03 A3026 RMK A01 T00561025  RH  056%=      5-min Rain = 0
KFR1 192237Z 36005KT 06/M03 A3026 RMK A01 T00571025  RH  056%=      5-min Rain = 0
KFR1 192238Z 36007KT 06/M03 A3026 RMK A01 T00571025  RH  056%=      5-min Rain = 0
KFR1 192239Z 01006KT 06/M03 A3026 RMK A01 T00571026  RH  055%=      5-min Rain = 0
KFR1 192240Z 01005KT 06/M03 A3026 RMK A01 T00561026  RH  055%=      5-min Rain = 0
KFR1 192241Z 01005KT 06/M03 A3026 RMK A01 T00571026  RH  055%=      5-min Rain = 0
KFR1 192242Z 02005KT 06/M03 A3026 RMK A01 T00561025  RH  056%=      5-min Rain = 0
KFR1 192243Z 03004KT 06/M03 A3026 RMK A01 T00551025  RH  056%=      5-min Rain = 0
KFR1 192244Z 02004KT 06/M03 A3026 RMK A01 T00551025  RH  056%=      5-min Rain = 0
KFR1 192245Z 02003KT 06/M03 A3026 RMK A01 T00551026  RH  056%=      5-min Rain = 0
KFR1 192246Z 01005KT 06/M03 A3026 RMK A01 T00561026  RH  056%=      5-min Rain = 0
KFR1 192247Z 00005KT 06/M03 A3026 RMK A01 T00561026  RH  056%=      5-min Rain = 0
KFR1 192248Z 01004KT 06/M03 A3026 RMK A01 T00561026  RH  056%=      5-min Rain = 0
KFR1 192249Z 00004KT 06/M03 A3026 RMK A01 T00561026  RH  056%=      5-min Rain = 0
KFR1 192250Z 01004KT 06/M03 A3026 RMK A01 T00561026  RH  056%=      5-min Rain = 0
KFR1 192251Z 00005KT 06/M03 A3026 RMK A01 T00561026  RH  055%=      5-min Rain = 0
KFR1 192252Z 00005KT 06/M03 A3027 RMK A01 T00561026  RH  056%=      5-min Rain = 0
KFR1 192253Z 00006KT 06/M03 A3027 RMK A01 T00561025  RH  056%=      5-min Rain = 0
KFR1 192254Z 00006KT 06/M03 A3027 RMK A01 T00561025  RH  056%=      5-min Rain = 0
KFR1 192255Z 01005KT 06/M02 A3027 RMK A01 T00561024  RH  056%=      5-min Rain = 0
KFR1 192256Z 01005KT 06/M03 A3027 RMK A01 T00551025  RH  056%=      5-min Rain = 0
KFR1 192257Z 00006KT 06/M03 A3027 RMK A01 T00551026  RH  056%=      5-min Rain = 0
KFR1 192258Z 00006KT 06/M03 A3027 RMK A01 T00551027  RH  055%=      5-min Rain = 0
KFR1 192259Z 01006KT 06/M03 A3027 RMK A01 T00551028  RH  055%=      5-min Rain = 0
KFR1 192300Z 00006KT 06/M03 A3027 RMK A01 T00551028  RH  055%=      5-min Rain = 0
KFR1 192301Z 01005KT 06/M03 A3027 RMK A01 T00551027  RH  055%=      5-min Rain = 0
KFR1 192302Z 36004KT 06/M03 A3027 RMK A01 T00551026  RH  056%=      5-min Rain = 0
KFR1 192303Z 35006KT 06/M02 A3027 RMK A01 T00551024  RH  057%=      5-min Rain = 0
KFR1 192304Z 36005KT 06/M02 A3027 RMK A01 T00561022  RH  057%=      5-min Rain = 0
KFR1 192305Z 36006KT 06/M02 A3027 RMK A01 T00551023  RH  057%=      5-min Rain = 0
KFR1 192306Z 00005KT 06/M02 A3027 RMK A01 T00561023  RH  057%=      5-min Rain = 0
KFR1 192307Z 01006KT 06/M02 A3027 RMK A01 T00551023  RH  057%=      5-min Rain = 0
KFR1 192308Z 02006KT 06/M03 A3027 RMK A01 T00551025  RH  056%=      5-min Rain = 0
KFR1 192309Z 02006KT 05/M03 A3027 RMK A01 T00541026  RH  056%=      5-min Rain = 0
KFR1 192310Z 02006KT 05/M03 A3027 RMK A01 T00541027  RH  056%=      5-min Rain = 0
KFR1 192311Z 03004KT 05/M03 A3027 RMK A01 T00541027  RH  056%=      5-min Rain = 0
KFR1 192312Z 03005KT 05/M03 A3027 RMK A01 T00531027  RH  056%=      5-min Rain = 0
KFR1 192313Z 02005KT 05/M03 A3027 RMK A01 T00531027  RH  056%=      5-min Rain = 0
KFR1 192314Z 02005KT 05/M03 A3027 RMK A01 T00531027  RH  056%=      5-min Rain = 0
KFR1 192315Z 00005KT 05/M03 A3027 RMK A01 T00531027  RH  056%=      5-min Rain = 0
KFR1 192316Z 01005KT 05/M03 A3027 RMK A01 T00531027  RH  056%=      5-min Rain = 0
KFR1 192317Z 01005KT 05/M03 A3027 RMK A01 T00531027  RH  056%=      5-min Rain = 0
KFR1 192318Z 01006KT 05/M03 A3027 RMK A01 T00541027  RH  056%=      5-min Rain = 0
KFR1 192319Z 00006KT 05/M03 A3027 RMK A01 T00541028  RH  056%=      5-min Rain = 0
KFR1 192320Z 01005KT 05/M03 A3027 RMK A01 T00541028  RH  055%=      5-min Rain = 0
KFR1 192321Z 01005KT 05/M03 A3027 RMK A01 T00541028  RH  055%=      5-min Rain = 0
KFR1 192322Z 01004KT 05/M03 A3027 RMK A01 T00541028  RH  056%=      5-min Rain = 0
KFR1 192323Z 00005KT 05/M03 A3027 RMK A01 T00541028  RH  056%=      5-min Rain = 0
KFR1 192324Z 01004KT 05/M03 A3027 RMK A01 T00531027  RH  056%=      5-min Rain = 0
KFR1 192325Z 00004KT 05/M03 A3027 RMK A01 T00531027  RH  056%=      5-min Rain = 0
KFR1 192326Z 00004KT 05/M03 A3027 RMK A01 T00531027  RH  056%=      5-min Rain = 0
KFR1 192327Z 35002KT 05/M03 A3027 RMK A01 T00531027  RH  056%=      5-min Rain = 0
KFR1 192328Z 01002KT 05/M03 A3027 RMK A01 T00541027  RH  056%=      5-min Rain = 0
KFR1 192329Z 03002KT 05/M03 A3027 RMK A01 T00541027  RH  056%=      5-min Rain = 0
KFR1 192330Z 03002KT 05/M03 A3027 RMK A01 T00541026  RH  056%=      5-min Rain = 0
KFR1 192331Z 03003KT 05/M03 A3027 RMK A01 T00531026  RH  056%=      5-min Rain = 0
KFR1 192332Z 02003KT 05/M03 A3027 RMK A01 T00521027  RH  057%=      5-min Rain = 0
KFR1 192333Z 03003KT 05/M03 A3027 RMK A01 T00521027  RH  057%=      5-min Rain = 0
KFR1 192334Z 03003KT 05/M03 A3027 RMK A01 T00511027  RH  057%=      5-min Rain = 0
KFR1 192335Z 03003KT 05/M03 A3027 RMK A01 T00511027  RH  057%=      5-min Rain = 0
KFR1 192336Z 03003KT 05/M03 A3027 RMK A01 T00501026  RH  058%=      5-min Rain = 0
KFR1 192337Z 04003KT 05/M03 A3027 RMK A01 T00501026  RH  058%=      5-min Rain = 0
KFR1 192338Z 03002KT 05/M03 A3027 RMK A01 T00501026  RH  058%=      5-min Rain = 0
KFR1 192339Z 02003KT 05/M03 A3027 RMK A01 T00501026  RH  058%=      5-min Rain = 0
KFR1 192340Z 04002KT 05/M03 A3027 RMK A01 T00501025  RH  058%=      5-min Rain = 0
KFR1 192341Z 03002KT 05/M03 A3027 RMK A01 T00491026  RH  058%=      5-min Rain = 0
KFR1 192342Z 05001KT 05/M03 A3027 RMK A01 T00491026  RH  058%=      5-min Rain = 0
KFR1 192343Z 05002KT 05/M03 A3027 RMK A01 T00481026  RH  059%=      5-min Rain = 0
KFR1 192344Z 04002KT 05/M03 A3027 RMK A01 T00471026  RH  059%=      5-min Rain = 0
KFR1 192345Z 05003KT 05/M03 A3027 RMK A01 T00471026  RH  059%=      5-min Rain = 0
KFR1 192346Z 04004KT 05/M03 A3027 RMK A01 T00461026  RH  060%=      5-min Rain = 0
KFR1 192347Z 05004KT 05/M03 A3027 RMK A01 T00461025  RH  060%=      5-min Rain = 0
KFR1 192348Z 05003KT 05/M02 A3027 RMK A01 T00471024  RH  060%=      5-min Rain = 0
KFR1 192349Z 07003KT 05/M03 A3027 RMK A01 T00471025  RH  060%=      5-min Rain = 0
KFR1 192350Z 07003KT 05/M03 A3027 RMK A01 T00461025  RH  060%=      5-min Rain = 0
KFR1 192351Z 07003KT 05/M03 A3027 RMK A01 T00461025  RH  060%=      5-min Rain = 0
KFR1 192352Z 08003KT 05/M03 A3027 RMK A01 T00461026  RH  060%=      5-min Rain = 0
KFR1 192353Z 08003KT 05/M03 A3027 RMK A01 T00451026  RH  060%=      5-min Rain = 0
KFR1 192354Z 10002KT 05/M03 A3027 RMK A01 T00451026  RH  060%=      5-min Rain = 0
KFR1 192355Z 11002KT 05/M03 A3027 RMK A01 T00451026  RH  060%=      5-min Rain = 0
KFR1 192356Z 10003KT 05/M03 A3027 RMK A01 T00451025  RH  060%=      5-min Rain = 0
KFR1 192357Z 11002KT 05/M03 A3027 RMK A01 T00461025  RH  060%=      5-min Rain = 0
KFR1 192358Z 11002KT 05/M03 A3027 RMK A01 T00461025  RH  060%=      5-min Rain = 0
KFR1 192359Z 10002KT 05/M03 A3027 RMK A01 T00471025  RH  060%=      5-min Rain = 0
KFR1 200000Z 09002KT 05/M03 A3027 RMK A01 T00471025  RH  060%=      5-min Rain = 0
KFR1 200001Z 08003KT 05/M03 A3027 RMK A01 T00461026  RH  059%=      5-min Rain = 0
KFR1 200002Z 09003KT 04/M03 A3027 RMK A01 T00441028  RH  060%=      5-min Rain = 0
KFR1 200003Z 09003KT 04/M03 A3027 RMK A01 T00421027  RH  061%=      5-min Rain = 0
KFR1 200004Z 08003KT 04/M03 A3027 RMK A01 T00431026  RH  061%=      5-min Rain = 0
KFR1 200005Z 08003KT 04/M03 A3027 RMK A01 T00431026  RH  061%=      5-min Rain = 0
KFR1 200006Z 07003KT 04/M03 A3027 RMK A01 T00421027  RH  061%=      5-min Rain = 0
KFR1 200007Z 07003KT 04/M03 A3027 RMK A01 T00421026  RH  061%=      5-min Rain = 0
KFR1 200008Z 07003KT 04/M03 A3027 RMK A01 T00421026  RH  061%=      5-min Rain = 0
KFR1 200009Z 07003KT 04/M03 A3027 RMK A01 T00421026  RH  061%=      5-min Rain = 0
KFR1 200010Z 08003KT 04/M03 A3027 RMK A01 T00421026  RH  061%=      5-min Rain = 0
KFR1 200011Z 08003KT 04/M03 A3027 RMK A01 T00421027  RH  061%=      5-min Rain = 0
KFR1 200012Z 08003KT 04/M03 A3027 RMK A01 T00411027  RH  061%=      5-min Rain = 0
KFR1 200013Z 08003KT 04/M03 A3027 RMK A01 T00411026  RH  062%=      5-min Rain = 0
KFR1 200014Z 09002KT 04/M03 A3027 RMK A01 T00411025  RH  062%=      5-min Rain = 0
KFR1 200015Z 10002KT 04/M03 A3027 RMK A01 T00421025  RH  062%=      5-min Rain = 0
KFR1 200016Z 10003KT 04/M03 A3027 RMK A01 T00421025  RH  062%=      5-min Rain = 0
KFR1 200017Z 11003KT 04/M03 A3027 RMK A01 T00421025  RH  062%=      5-min Rain = 0
KFR1 200018Z 12003KT 04/M03 A3027 RMK A01 T00421025  RH  062%=      5-min Rain = 0
KFR1 200019Z 12004KT 04/M03 A3027 RMK A01 T00421025  RH  062%=      5-min Rain = 0
KFR1 200020Z 12004KT 04/M03 A3027 RMK A01 T00421025  RH  062%=      5-min Rain = 0
KFR1 200021Z 12004KT 04/M03 A3027 RMK A01 T00421025  RH  062%=      5-min Rain = 0
KFR1 200022Z 12004KT 04/M03 A3027 RMK A01 T00421025  RH  062%=      5-min Rain = 0
KFR1 200023Z 12005KT 04/M03 A3027 RMK A01 T00421025  RH  062%=      5-min Rain = 0
KFR1 200024Z 11004KT 04/M03 A3027 RMK A01 T00411025  RH  062%=      5-min Rain = 0
KFR1 200025Z 11004KT 04/M03 A3027 RMK A01 T00411025  RH  062%=      5-min Rain = 0
KFR1 200026Z 12004KT 04/M03 A3027 RMK A01 T00411025  RH  062%=      5-min Rain = 0
KFR1 200027Z 12004KT 04/M03 A3027 RMK A01 T00411025  RH  062%=      5-min Rain = 0
KFR1 200028Z 12005KT 04/M03 A3027 RMK A01 T00411025  RH  062%=      5-min Rain = 0
KFR1 200029Z 12005KT 04/M03 A3027 RMK A01 T00411025  RH  062%=      5-min Rain = 0
KFR1 200030Z 12005KT 04/M03 A3027 RMK A01 T00421025  RH  062%=      5-min Rain = 0
KFR1 200031Z 12004KT 04/M03 A3027 RMK A01 T00421025  RH  062%=      5-min Rain = 0
KFR1 200032Z 14004KT 04/M03 A3028 RMK A01 T00431025  RH  062%=      5-min Rain = 0
KFR1 200033Z 13004KT 04/M03 A3028 RMK A01 T00411026  RH  061%=      5-min Rain = 0
KFR1 200034Z 13004KT 04/M03 A3027 RMK A01 T00391027  RH  062%=      5-min Rain = 0
KFR1 200035Z 12005KT 04/M03 A3027 RMK A01 T00381027  RH  063%=      5-min Rain = 0
KFR1 200036Z 12005KT 04/M03 A3027 RMK A01 T00381026  RH  063%=      5-min Rain = 0
KFR1 200037Z 12005KT 04/M03 A3027 RMK A01 T00381026  RH  063%=      5-min Rain = 0
KFR1 200038Z 12005KT 04/M03 A3027 RMK A01 T00371026  RH  063%=      5-min Rain = 0
KFR1 200039Z 12005KT 04/M03 A3027 RMK A01 T00371026  RH  063%=      5-min Rain = 0
KFR1 200040Z 13005KT 04/M03 A3027 RMK A01 T00371026  RH  063%=      5-min Rain = 0
KFR1 200041Z 13004KT 04/M03 A3027 RMK A01 T00381026  RH  063%=      5-min Rain = 0
KFR1 200042Z 14004KT 04/M03 A3027 RMK A01 T00371026  RH  063%=      5-min Rain = 0
KFR1 200043Z 14005KT 04/M03 A3027 RMK A01 T00361027  RH  063%=      5-min Rain = 0
KFR1 200044Z 14005KT 04/M03 A3027 RMK A01 T00351027  RH  064%=      5-min Rain = 0
KFR1 200045Z 14005KT 03/M03 A3026 RMK A01 T00341028  RH  064%=      5-min Rain = 0
KFR1 200046Z 14005KT 03/M03 A3026 RMK A01 T00331028  RH  064%=      5-min Rain = 0
KFR1 200047Z 14005KT 03/M03 A3026 RMK A01 T00341027  RH  064%=      5-min Rain = 0
KFR1 200048Z 13005KT 03/M03 A3026 RMK A01 T00341026  RH  065%=      5-min Rain = 0
KFR1 200049Z 13005KT 04/M03 A3026 RMK A01 T00351025  RH  065%=      5-min Rain = 0
KFR1 200050Z 12006KT 04/M02 A3026 RMK A01 T00371024  RH  064%=      5-min Rain = 0
KFR1 200051Z 12006KT 04/M03 A3026 RMK A01 T00371026  RH  063%=      5-min Rain = 0
KFR1 200052Z 12006KT 04/M03 A3026 RMK A01 T00371026  RH  063%=      5-min Rain = 0
KFR1 200053Z 12006KT 04/M03 A3026 RMK A01 T00361027  RH  064%=      5-min Rain = 0
KFR1 200054Z 12006KT 04/M03 A3025 RMK A01 T00351026  RH  064%=      5-min Rain = 0
KFR1 200055Z 13007KT 04/M03 A3025 RMK A01 T00361026  RH  064%=      5-min Rain = 0
KFR1 200056Z 13006KT 04/M03 A3025 RMK A01 T00361025  RH  064%=      5-min Rain = 0
KFR1 200057Z 14006KT 04/M03 A3025 RMK A01 T00371025  RH  064%=      5-min Rain = 0
KFR1 200058Z 13006KT 04/M03 A3025 RMK A01 T00371026  RH  064%=      5-min Rain = 0
KFR1 200059Z 13007KT 04/M03 A3025 RMK A01 T00361026  RH  064%=      5-min Rain = 0
KFR1 200100Z 13007KT 04/M03 A3025 RMK A01 T00361026  RH  064%=      5-min Rain = 0
KFR1 200101Z 13007KT 04/M03 A3025 RMK A01 T00361026  RH  064%=      5-min Rain = 0
KFR1 200102Z 13007KT 04/M03 A3025 RMK A01 T00361026  RH  064%=      5-min Rain = 0
KFR1 200103Z 13007KT 04/M03 A3025 RMK A01 T00351026  RH  064%=      5-min Rain = 0
KFR1 200104Z 14006KT 04/M03 A3025 RMK A01 T00351026  RH  064%=      5-min Rain = 0
KFR1 200105Z 13006KT 03/M03 A3025 RMK A01 T00331028  RH  064%=      5-min Rain = 0
KFR1 200106Z 12008KT 03/M03 A3025 RMK A01 T00311028  RH  065%=      5-min Rain = 0
KFR1 200107Z 12008KT 03/M03 A3025 RMK A01 T00311027  RH  065%=      5-min Rain = 0
KFR1 200108Z 12008KT 03/M03 A3025 RMK A01 T00311028  RH  065%=      5-min Rain = 0
KFR1 200109Z 12007KT 03/M03 A3024 RMK A01 T00301028  RH  066%=      5-min Rain = 0
KFR1 200110Z 12008KT 03/M03 A3024 RMK A01 T00291029  RH  066%=      5-min Rain = 0
KFR1 200111Z 11008KT 03/M03 A3024 RMK A01 T00261030  RH  066%=      5-min Rain = 0
KFR1 200112Z 11008KT 03/M03 A3024 RMK A01 T00251030  RH  067%=      5-min Rain = 0
KFR1 200113Z 11008KT 02/M03 A3024 RMK A01 T00241030  RH  068%=      5-min Rain = 0
KFR1 200114Z 11009KT 02/M03 A3024 RMK A01 T00241029  RH  068%=      5-min Rain = 0
KFR1 200115Z 11009KT 02/M03 A3024 RMK A01 T00241029  RH  068%=      5-min Rain = 0
KFR1 200116Z 11008KT 02/M03 A3024 RMK A01 T00231029  RH  068%=      5-min Rain = 0
KFR1 200117Z 11008KT 02/M03 A3024 RMK A01 T00221029  RH  069%=      5-min Rain = 0
KFR1 200118Z 11008KT 02/M03 A3024 RMK A01 T00221030  RH  069%=      5-min Rain = 0
KFR1 200119Z 11008KT 02/M03 A3024 RMK A01 T00211030  RH  069%=      5-min Rain = 0
KFR1 200120Z 12008KT 02/M03 A3024 RMK A01 T00211029  RH  069%=      5-min Rain = 0
KFR1 200121Z 12009KT 02/M03 A3024 RMK A01 T00211029  RH  070%=      5-min Rain = 0
KFR1 200122Z 12008KT 02/M03 A3024 RMK A01 T00211029  RH  070%=      5-min Rain = 0
KFR1 200123Z 12008KT 02/M03 A3024 RMK A01 T00211029  RH  070%=      5-min Rain = 0
KFR1 200124Z 12008KT 02/M03 A3024 RMK A01 T00221028  RH  069%=      5-min Rain = 0
KFR1 200125Z 12007KT 02/M03 A3024 RMK A01 T00231028  RH  069%=      5-min Rain = 0
KFR1 200126Z 12007KT 02/M03 A3024 RMK A01 T00231028  RH  069%=      5-min Rain = 0
KFR1 200127Z 12007KT 02/M03 A3024 RMK A01 T00231029  RH  069%=      5-min Rain = 0
KFR1 200128Z 12007KT 02/M03 A3024 RMK A01 T00221029  RH  069%=      5-min Rain = 0
KFR1 200129Z 12007KT 02/M03 A3024 RMK A01 T00221029  RH  069%=      5-min Rain = 0
KFR1 200130Z 12007KT 02/M03 A3024 RMK A01 T00221029  RH  069%=      5-min Rain = 0
KFR1 200131Z 12008KT 02/M03 A3024 RMK A01 T00221029  RH  069%=      5-min Rain = 0
KFR1 200132Z 12008KT 02/M03 A3024 RMK A01 T00231027  RH  069%=      5-min Rain = 0
KFR1 200133Z 13008KT 03/M03 A3024 RMK A01 T00251027  RH  069%=      5-min Rain = 0
KFR1 200134Z 13008KT 03/M03 A3024 RMK A01 T00261027  RH  068%=      5-min Rain = 0
KFR1 200135Z 12008KT 03/M03 A3024 RMK A01 T00261028  RH  068%=      5-min Rain = 0
KFR1 200136Z 12008KT 03/M03 A3024 RMK A01 T00261028  RH  068%=      5-min Rain = 0
KFR1 200137Z 12008KT 03/M03 A3024 RMK A01 T00251028  RH  068%=      5-min Rain = 0
KFR1 200138Z 12007KT 02/M03 A3024 RMK A01 T00241029  RH  068%=      5-min Rain = 0
KFR1 200139Z 12007KT 02/M03 A3024 RMK A01 T00231029  RH  068%=      5-min Rain = 0
KFR1 200140Z 12007KT 02/M03 A3025 RMK A01 T00231029  RH  069%=      5-min Rain = 0
KFR1 200141Z 12008KT 02/M03 A3025 RMK A01 T00231028  RH  069%=      5-min Rain = 0
KFR1 200142Z 12007KT 02/M03 A3025 RMK A01 T00221029  RH  069%=      5-min Rain = 0
KFR1 200143Z 12007KT 02/M03 A3025 RMK A01 T00231028  RH  069%=      5-min Rain = 0
KFR1 200144Z 12007KT 02/M03 A3025 RMK A01 T00231028  RH  069%=      5-min Rain = 0
KFR1 200145Z 12007KT 02/M03 A3025 RMK A01 T00231028  RH  069%=      5-min Rain = 0
KFR1 200146Z 13007KT 02/M03 A3025 RMK A01 T00231028  RH  069%=      5-min Rain = 0
KFR1 200147Z 13007KT 02/M03 A3026 RMK A01 T00231028  RH  069%=      5-min Rain = 0
KFR1 200148Z 13006KT 02/M03 A3026 RMK A01 T00231028  RH  069%=      5-min Rain = 0
KFR1 200149Z 14006KT 02/M03 A3026 RMK A01 T00241028  RH  069%=      5-min Rain = 0
KFR1 200150Z 15006KT 02/M03 A3026 RMK A01 T00231029  RH  069%=      5-min Rain = 0
KFR1 200151Z 15006KT 02/M03 A3026 RMK A01 T00211030  RH  069%=      5-min Rain = 0
KFR1 200152Z 15006KT 02/M03 A3026 RMK A01 T00181032  RH  069%=      5-min Rain = 0
KFR1 200153Z 15007KT 02/M03 A3026 RMK A01 T00161032  RH  070%=      5-min Rain = 0
KFR1 200154Z 15006KT 02/M03 A3026 RMK A01 T00151032  RH  071%=      5-min Rain = 0
KFR1 200155Z 15006KT 01/M03 A3026 RMK A01 T00141032  RH  072%=      5-min Rain = 0
KFR1 200156Z 14006KT 01/M03 A3026 RMK A01 T00131032  RH  072%=      5-min Rain = 0
KFR1 200157Z 15005KT 01/M03 A3026 RMK A01 T00131032  RH  072%=      5-min Rain = 0
KFR1 200158Z 15005KT 01/M03 A3026 RMK A01 T00121032  RH  072%=      5-min Rain = 0
KFR1 200159Z 16004KT 01/M03 A3026 RMK A01 T00111033  RH  073%=      5-min Rain = 0
KFR1 200200Z 16004KT 01/M03 A3026 RMK A01 T00101033  RH  073%=      5-min Rain = 0
KFR1 200201Z 17004KT 01/M03 A3026 RMK A01 T00101032  RH  073%=      5-min Rain = 0
KFR1 200202Z 17003KT 01/M03 A3026 RMK A01 T00101032  RH  073%=      5-min Rain = 0
KFR1 200203Z 16004KT 01/M03 A3026 RMK A01 T00111032  RH  073%=      5-min Rain = 0
KFR1 200204Z 15004KT 01/M03 A3026 RMK A01 T00121031  RH  073%=      5-min Rain = 0
KFR1 200205Z 13004KT 01/M03 A3026 RMK A01 T00121031  RH  073%=      5-min Rain = 0
KFR1 200206Z 13005KT 02/M03 A3026 RMK A01 T00151029  RH  073%=      5-min Rain = 0
KFR1 200207Z 13006KT 02/M03 A3026 RMK A01 T00171029  RH  072%=      5-min Rain = 0
KFR1 200208Z 13005KT 02/M03 A3026 RMK A01 T00191028  RH  071%=      5-min Rain = 0
KFR1 200209Z 14005KT 02/M03 A3026 RMK A01 T00191029  RH  070%=      5-min Rain = 0
KFR1 200210Z 15005KT 02/M03 A3026 RMK A01 T00171032  RH  070%=      5-min Rain = 0
KFR1 200211Z 15007KT 01/M04 A3026 RMK A01 T00131035  RH  070%=      5-min Rain = 0
KFR1 200212Z 15007KT 01/M04 A3026 RMK A01 T00101035  RH  072%=      5-min Rain = 0
KFR1 200213Z 15006KT 01/M04 A3026 RMK A01 T00081035  RH  073%=      5-min Rain = 0
KFR1 200214Z 15006KT 01/M04 A3026 RMK A01 T00071035  RH  073%=      5-min Rain = 0
KFR1 200215Z 14007KT 01/M04 A3026 RMK A01 T00061035  RH  074%=      5-min Rain = 0
KFR1 200216Z 13006KT 01/M03 A3026 RMK A01 T00061032  RH  075%=      5-min Rain = 0
KFR1 200217Z 13006KT 01/M03 A3026 RMK A01 T00091030  RH  075%=      5-min Rain = 0
KFR1 200218Z 12006KT 01/M03 A3026 RMK A01 T00131027  RH  074%=      5-min Rain = 0
KFR1 200219Z 12006KT 02/M03 A3026 RMK A01 T00161028  RH  072%=      5-min Rain = 0
KFR1 200220Z 12005KT 02/M03 A3026 RMK A01 T00161031  RH  071%=      5-min Rain = 0
KFR1 200221Z 12004KT 02/M03 A3026 RMK A01 T00151030  RH  072%=      5-min Rain = 0
KFR1 200222Z 13004KT 02/M03 A3026 RMK A01 T00181028  RH  071%=      5-min Rain = 0
KFR1 200223Z 13003KT 02/M03 A3026 RMK A01 T00201029  RH  070%=      5-min Rain = 0
KFR1 200224Z 14002KT 02/M03 A3026 RMK A01 T00191031  RH  069%=      5-min Rain = 0
KFR1 200225Z 16004KT 02/M03 A3026 RMK A01 T00171033  RH  070%=      5-min Rain = 0
KFR1 200226Z 16004KT 01/M04 A3026 RMK A01 T00131035  RH  070%=      5-min Rain = 0
KFR1 200227Z 15006KT 01/M04 A3026 RMK A01 T00111035  RH  072%=      5-min Rain = 0
KFR1 200228Z 15005KT 01/M03 A3026 RMK A01 T00101033  RH  073%=      5-min Rain = 0
KFR1 200229Z 15005KT 01/M03 A3027 RMK A01 T00111032  RH  073%=      5-min Rain = 0
KFR1 200230Z 15005KT 01/M03 A3027 RMK A01 T00111032  RH  073%=      5-min Rain = 0
KFR1 200231Z 14005KT 01/M03 A3026 RMK A01 T00121031  RH  073%=      5-min Rain = 0
KFR1 200232Z 14004KT 01/M03 A3026 RMK A01 T00141030  RH  072%=      5-min Rain = 0
KFR1 200233Z 14004KT 02/M03 A3026 RMK A01 T00161030  RH  071%=      5-min Rain = 0
KFR1 200234Z 14005KT 02/M03 A3026 RMK A01 T00151032  RH  071%=      5-min Rain = 0
KFR1 200235Z 15004KT 01/M03 A3026 RMK A01 T00131034  RH  071%=      5-min Rain = 0
KFR1 200236Z 09001KT 01/M03 A3026 RMK A01 T00121034  RH  072%=      5-min Rain = 0
KFR1 200237Z 09002KT 01/M03 A3026 RMK A01 T00101034  RH  072%=      5-min Rain = 0
KFR1 200238Z 08002KT 01/M03 A3026 RMK A01 T00101033  RH  073%=      5-min Rain = 0
KFR1 200239Z 09002KT 01/M03 A3026 RMK A01 T00101032  RH  073%=      5-min Rain = 0
KFR1 200240Z 11003KT 01/M03 A3026 RMK A01 T00111033  RH  073%=      5-min Rain = 0
KFR1 200241Z 12004KT 01/M04 A3026 RMK A01 T00091035  RH  072%=      5-min Rain = 0
KFR1 200242Z 13006KT 01/M04 A3026 RMK A01 T00071036  RH  073%=      5-min Rain = 0
KFR1 200243Z 13006KT 01/M03 A3026 RMK A01 T00071034  RH  074%=      5-min Rain = 0
KFR1 200244Z 14006KT 01/M03 A3026 RMK A01 T00081032  RH  075%=      5-min Rain = 0
KFR1 200245Z 15006KT 01/M03 A3026 RMK A01 T00091032  RH  074%=      5-min Rain = 0
KFR1 200246Z 16006KT 01/M03 A3026 RMK A01 T00101032  RH  073%=      5-min Rain = 0
KFR1 200247Z 16006KT 01/M03 A3026 RMK A01 T00091033  RH  073%=      5-min Rain = 0
KFR1 200248Z 16005KT 01/M03 A3026 RMK A01 T00071034  RH  074%=      5-min Rain = 0
KFR1 200249Z 16005KT 01/M03 A3026 RMK A01 T00071034  RH  074%=      5-min Rain = 0
KFR1 200250Z 15006KT 01/M03 A3025 RMK A01 T00071033  RH  075%=      5-min Rain = 0
KFR1 200251Z 14006KT 01/M03 A3025 RMK A01 T00071033  RH  075%=      5-min Rain = 0
KFR1 200252Z 15005KT 01/M03 A3025 RMK A01 T00081032  RH  075%=      5-min Rain = 0
KFR1 200253Z 14005KT 01/M03 A3025 RMK A01 T00101030  RH  074%=      5-min Rain = 0
KFR1 200254Z 13006KT 01/M03 A3025 RMK A01 T00131029  RH  073%=      5-min Rain = 0
KFR1 200255Z 14007KT 02/M03 A3025 RMK A01 T00161029  RH  072%=      5-min Rain = 0
KFR1 200256Z 13007KT 02/M03 A3025 RMK A01 T00191028  RH  071%=      5-min Rain = 0
KFR1 200257Z 13008KT 02/M03 A3024 RMK A01 T00211029  RH  070%=      5-min Rain = 0
KFR1 200258Z 13008KT 02/M03 A3024 RMK A01 T00201030  RH  069%=      5-min Rain = 0
KFR1 200259Z 14008KT 02/M03 A3024 RMK A01 T00191031  RH  069%=      5-min Rain = 0
KFR1 200300Z 14007KT 02/M03 A3024 RMK A01 T00201031  RH  069%=      5-min Rain = 0
KFR1 200301Z 15008KT 02/M03 A3024 RMK A01 T00201030  RH  069%=      5-min Rain = 0
KFR1 200302Z 16007KT 02/M03 A3025 RMK A01 T00191032  RH  069%=      5-min Rain = 0
KFR1 200303Z 16007KT 02/M03 A3025 RMK A01 T00151034  RH  070%=      5-min Rain = 0
KFR1 200304Z 16007KT 01/M03 A3025 RMK A01 T00121034  RH  071%=      5-min Rain = 0
KFR1 200305Z 16005KT 01/M03 A3025 RMK A01 T00101034  RH  073%=      5-min Rain = 0
KFR1 200306Z 15006KT 01/M03 A3025 RMK A01 T00101033  RH  073%=      5-min Rain = 0
KFR1 200307Z 15007KT 01/M03 A3025 RMK A01 T00091033  RH  073%=      5-min Rain = 0
KFR1 200308Z 15007KT 01/M03 A3025 RMK A01 T00091033  RH  074%=      5-min Rain = 0
KFR1 200309Z 15006KT 01/M03 A3025 RMK A01 T00091033  RH  074%=      5-min Rain = 0
KFR1 200310Z 16006KT 01/M03 A3025 RMK A01 T00081033  RH  074%=      5-min Rain = 0
KFR1 200311Z 16005KT 01/M03 A3025 RMK A01 T00071034  RH  074%=      5-min Rain = 0
KFR1 200312Z 16005KT 01/M03 A3025 RMK A01 T00061034  RH  075%=      5-min Rain = 0
KFR1 200313Z 15004KT 01/M03 A3024 RMK A01 T00051034  RH  075%=      5-min Rain = 0
KFR1 200314Z 11003KT 00/M04 A3024 RMK A01 T00041035  RH  075%=      5-min Rain = 0
KFR1 200315Z 10003KT 00/M03 A3024 RMK A01 T00041034  RH  076%=      5-min Rain = 0
KFR1 200316Z 13005KT 00/M03 A3024 RMK A01 T00031034  RH  076%=      5-min Rain = 0
KFR1 200317Z 14006KT 00/M03 A3024 RMK A01 T00041033  RH  076%=      5-min Rain = 0
KFR1 200318Z 15006KT 01/M03 A3024 RMK A01 T00091029  RH  076%=      5-min Rain = 0
KFR1 200319Z 15006KT 01/M03 A3024 RMK A01 T00111029  RH  074%=      5-min Rain = 0
KFR1 200320Z 16007KT 01/M03 A3024 RMK A01 T00111031  RH  074%=      5-min Rain = 0
KFR1 200321Z 17006KT 01/M03 A3024 RMK A01 T00081033  RH  074%=      5-min Rain = 0
KFR1 200322Z 17005KT 01/M03 A3025 RMK A01 T00061034  RH  075%=      5-min Rain = 0
KFR1 200323Z 18004KT 01/M03 A3024 RMK A01 T00051034  RH  075%=      5-min Rain = 0
KFR1 200324Z 18004KT 00/M03 A3024 RMK A01 T00041034  RH  076%=      5-min Rain = 0
KFR1 200325Z 19004KT 00/M03 A3025 RMK A01 T00031034  RH  076%=      5-min Rain = 0
KFR1 200326Z 19004KT 00/M03 A3025 RMK A01 T00041033  RH  076%=      5-min Rain = 0
KFR1 200327Z 19004KT 00/M03 A3025 RMK A01 T00041033  RH  076%=      5-min Rain = 0
KFR1 200328Z 19005KT 00/M03 A3025 RMK A01 T00031034  RH  076%=      5-min Rain = 0
KFR1 200329Z 20005KT 00/M03 A3025 RMK A01 T00031034  RH  076%=      5-min Rain = 0
KFR1 200330Z 19004KT 00/M03 A3025 RMK A01 T00021034  RH  076%=      5-min Rain = 0
KFR1 200331Z 20004KT 00/M04 A3025 RMK A01 T00011035  RH  077%=      5-min Rain = 0
KFR1 200332Z 18004KT 00/04 A3024 RMK A01 T00000-35  RH  077%=      5-min Rain = 0
KFR1 200333Z 17005KT 00/04 A3024 RMK A01 T00-00-35  RH  077%=      5-min Rain = 0
KFR1 200334Z 16005KT M00/M04 A3023 RMK A01 T10011035  RH  078%=      5-min Rain = 0
KFR1 200335Z 15006KT 00/04 A3023 RMK A01 T00-00-35  RH  078%=      5-min Rain = 0
KFR1 200336Z 15006KT 00/M03 A3023 RMK A01 T00011034  RH  078%=      5-min Rain = 0
KFR1 200337Z 14004KT 00/M03 A3023 RMK A01 T00021033  RH  077%=      5-min Rain = 0
KFR1 200338Z 12005KT 00/M04 A3022 RMK A01 T00021035  RH  076%=      5-min Rain = 0
KFR1 200339Z 14006KT 00/04 A3022 RMK A01 T00000-36  RH  076%=      5-min Rain = 0
KFR1 200340Z 15007KT 00/04 A3022 RMK A01 T00000-35  RH  077%=      5-min Rain = 0
KFR1 200341Z 15007KT 00/M03 A3022 RMK A01 T00041032  RH  077%=      5-min Rain = 0
KFR1 200342Z 15008KT 01/M03 A3023 RMK A01 T00061032  RH  076%=      5-min Rain = 0
KFR1 200343Z 15008KT 01/M03 A3023 RMK A01 T00071033  RH  075%=      5-min Rain = 0
KFR1 200344Z 16007KT 01/M03 A3023 RMK A01 T00061033  RH  075%=      5-min Rain = 0
KFR1 200345Z 16006KT 01/M03 A3023 RMK A01 T00061034  RH  075%=      5-min Rain = 0
KFR1 200346Z 16006KT 01/M03 A3023 RMK A01 T00051034  RH  075%=      5-min Rain = 0
KFR1 200347Z 17005KT 01/M03 A3023 RMK A01 T00051034  RH  075%=      5-min Rain = 0
KFR1 200348Z 17004KT 00/M03 A3023 RMK A01 T00041034  RH  075%=      5-min Rain = 0
KFR1 200349Z 19001KT 00/M04 A3023 RMK A01 T00041035  RH  075%=      5-min Rain = 0
KFR1 200350Z 22001KT 00/M04 A3024 RMK A01 T00031035  RH  075%=      5-min Rain = 0
KFR1 200351Z 29001KT 00/M04 A3024 RMK A01 T00021036  RH  075%=      5-min Rain = 0
KFR1 200352Z 32001KT 00/M04 A3024 RMK A01 T00011037  RH  076%=      5-min Rain = 0
KFR1 200353Z 32002KT 00/M04 A3024 RMK A01 T00011036  RH  076%=      5-min Rain = 0
KFR1 200354Z 29001KT 00/04 A3023 RMK A01 T00000-35  RH  077%=      5-min Rain = 0
KFR1 200355Z 19001KT 00/04 A3023 RMK A01 T00000-35  RH  077%=      5-min Rain = 0
KFR1 200356Z 13001KT 00/M04 A3023 RMK A01 T00011035  RH  077%=      5-min Rain = 0
KFR1 200357Z 14002KT 00/M04 A3022 RMK A01 T00011036  RH  076%=      5-min Rain = 0
KFR1 200358Z 11002KT 00/M04 A3022 RMK A01 T00011036  RH  076%=      5-min Rain = 0
KFR1 200359Z 11002KT 00/M04 A3023 RMK A01 T00011036  RH  076%=      5-min Rain = 0
KFR1 200400Z 11001KT 00/M04 A3023 RMK A01 T00021035  RH  076%=      5-min Rain = 0
KFR1 200401Z 10000KT 00/M04 A3023 RMK A01 T00021036  RH  076%=      5-min Rain = 0
KFR1 200402Z 35002KT 00/M04 A3024 RMK A01 T00021036  RH  076%=      5-min Rain = 0
KFR1 200403Z 33002KT 00/M04 A3024 RMK A01 T00021035  RH  076%=      5-min Rain = 0
KFR1 200404Z 32002KT 00/M04 A3024 RMK A01 T00021036  RH  075%=      5-min Rain = 0
KFR1 200405Z 31002KT 00/M04 A3024 RMK A01 T00031036  RH  075%=      5-min Rain = 0
KFR1 200406Z 32001KT 00/M04 A3024 RMK A01 T00031036  RH  075%=      5-min Rain = 0
KFR1 200407Z 31000KT 00/M04 A3024 RMK A01 T00031036  RH  075%=      5-min Rain = 0
KFR1 200408Z 33002KT 00/M03 A3024 RMK A01 T00041033  RH  076%=      5-min Rain = 0
KFR1 200409Z 34003KT 01/M03 A3025 RMK A01 T00051032  RH  076%=      5-min Rain = 0
KFR1 200410Z 35003KT 01/M03 A3025 RMK A01 T00051032  RH  076%=      5-min Rain = 0
KFR1 200411Z 36003KT 01/M03 A3025 RMK A01 T00051031  RH  077%=      5-min Rain = 0
KFR1 200412Z 02002KT 00/M03 A3024 RMK A01 T00041032  RH  077%=      5-min Rain = 0
KFR1 200413Z 06002KT 00/M03 A3024 RMK A01 T00031033  RH  077%=      5-min Rain = 0
KFR1 200414Z 03003KT 00/M03 A3024 RMK A01 T00031033  RH  077%=      5-min Rain = 0
KFR1 200415Z 02003KT 00/M03 A3025 RMK A01 T00031032  RH  077%=      5-min Rain = 0
KFR1 200416Z 02002KT 00/M03 A3025 RMK A01 T00031031  RH  078%=      5-min Rain = 0
KFR1 200417Z 01003KT 00/M03 A3025 RMK A01 T00031031  RH  078%=      5-min Rain = 0
KFR1 200418Z 01002KT 00/M03 A3024 RMK A01 T00021031  RH  078%=      5-min Rain = 0
KFR1 200419Z 01002KT 00/M03 A3024 RMK A01 T00021031  RH  078%=      5-min Rain = 0
KFR1 200420Z 01001KT 00/M03 A3024 RMK A01 T00011032  RH  078%=      5-min Rain = 0
KFR1 200421Z 02000KT 00/M03 A3024 RMK A01 T00011032  RH  079%=      5-min Rain = 0
KFR1 200422Z 32000KT 00/M03 A3024 RMK A01 T00011031  RH  079%=      5-min Rain = 0
KFR1 200423Z 29001KT 00/M03 A3024 RMK A01 T00011030  RH  079%=      5-min Rain = 0
KFR1 200424Z 29001KT 00/03 A3024 RMK A01 T00000-31  RH  079%=      5-min Rain = 0
KFR1 200425Z 29001KT 00/03 A3024 RMK A01 T00000-31  RH  080%=      5-min Rain = 0
KFR1 200426Z 30002KT 00/M03 A3024 RMK A01 T00011030  RH  080%=      5-min Rain = 0
KFR1 200427Z 31002KT 00/03 A3024 RMK A01 T00000-30  RH  080%=      5-min Rain = 0
KFR1 200428Z 32002KT 00/03 A3024 RMK A01 T00000-31  RH  080%=      5-min Rain = 0
KFR1 200429Z 34001KT 00/03 A3024 RMK A01 T00000-31  RH  079%=      5-min Rain = 0
KFR1 200430Z 01001KT 00/M03 A3024 RMK A01 T00011031  RH  079%=      5-min Rain = 0
KFR1 200431Z 01001KT 00/03 A3024 RMK A01 T00000-32  RH  079%=      5-min Rain = 0
KFR1 200432Z 02001KT 00/M03 A3024 RMK A01 T00011032  RH  079%=      5-min Rain = 0
KFR1 200433Z 02001KT 00/M03 A3024 RMK A01 T00011032  RH  079%=      5-min Rain = 0
KFR1 200434Z 01001KT 00/M03 A3024 RMK A01 T00011032  RH  079%=      5-min Rain = 0
KFR1 200435Z 01001KT 00/M03 A3024 RMK A01 T00011032  RH  078%=      5-min Rain = 0
KFR1 200436Z 00002KT 00/M03 A3024 RMK A01 T00011031  RH  079%=      5-min Rain = 0
KFR1 200437Z 00002KT 00/M03 A3024 RMK A01 T00011030  RH  079%=      5-min Rain = 0
KFR1 200438Z 35002KT 00/M03 A3024 RMK A01 T00011030  RH  080%=      5-min Rain = 0
KFR1 200439Z 33002KT 00/M03 A3025 RMK A01 T00011030  RH  080%=      5-min Rain = 0
KFR1 200440Z 31003KT 00/M03 A3025 RMK A01 T00011030  RH  080%=      5-min Rain = 0
KFR1 200441Z 31003KT 00/03 A3025 RMK A01 T00000-30  RH  080%=      5-min Rain = 0
KFR1 200442Z 30003KT 00/03 A3025 RMK A01 T00000-31  RH  079%=      5-min Rain = 0
KFR1 200443Z 31002KT M00/M03 A3026 RMK A01 T10011033  RH  079%=      5-min Rain = 0
KFR1 200444Z 31003KT M00/M03 A3026 RMK A01 T10021034  RH  078%=      5-min Rain = 0
KFR1 200445Z 31003KT M00/M04 A3026 RMK A01 T10021035  RH  079%=      5-min Rain = 0
KFR1 200446Z 32003KT M00/M03 A3026 RMK A01 T10031034  RH  079%=      5-min Rain = 0
KFR1 200447Z 34003KT M00/M03 A3026 RMK A01 T10041034  RH  080%=      5-min Rain = 0
KFR1 200448Z 34003KT M00/M03 A3026 RMK A01 T10041033  RH  081%=      5-min Rain = 0
KFR1 200449Z 34002KT M00/M03 A3026 RMK A01 T10041032  RH  081%=      5-min Rain = 0
KFR1 200450Z 34001KT M00/M03 A3025 RMK A01 T10041032  RH  081%=      5-min Rain = 0
KFR1 200451Z 32001KT M00/M03 A3025 RMK A01 T10031032  RH  081%=      5-min Rain = 0
KFR1 200452Z 30001KT M00/M03 A3025 RMK A01 T10031032  RH  081%=      5-min Rain = 0
KFR1 200453Z 28001KT M00/M03 A3025 RMK A01 T10031033  RH  080%=      5-min Rain = 0
KFR1 200454Z 28001KT M00/M03 A3025 RMK A01 T10021033  RH  080%=      5-min Rain = 0
KFR1 200455Z 28000KT M00/M03 A3025 RMK A01 T10021032  RH  080%=      5-min Rain = 0
KFR1 200456Z 35000KT M00/M03 A3025 RMK A01 T10021033  RH  080%=      5-min Rain = 0
KFR1 200457Z 35001KT M00/M03 A3025 RMK A01 T10021033  RH  080%=      5-min Rain = 0
KFR1 200458Z 35000KT M00/M03 A3025 RMK A01 T10021032  RH  080%=      5-min Rain = 0
KFR1 200459Z 01001KT M00/M03 A3025 RMK A01 T10021032  RH  080%=      5-min Rain = 0
KFR1 200500Z 01002KT M00/M03 A3025 RMK A01 T10021032  RH  080%=      5-min Rain = 0
KFR1 200501Z 01002KT M00/M03 A3025 RMK A01 T10021030  RH  081%=      5-min Rain = 0
KFR1 200502Z 01002KT M00/M03 A3025 RMK A01 T10011027  RH  083%=      5-min Rain = 0
KFR1 200503Z 36001KT 00/03 A3025 RMK A01 T00-00-26  RH  083%=      5-min Rain = 0
KFR1 200504Z 31001KT M00/M03 A3025 RMK A01 T10011028  RH  082%=      5-min Rain = 0
KFR1 200505Z 28001KT M00/M03 A3025 RMK A01 T10021030  RH  081%=      5-min Rain = 0
KFR1 200506Z 26002KT M00/M03 A3025 RMK A01 T10021031  RH  081%=      5-min Rain = 0
KFR1 200507Z 27001KT M00/M03 A3025 RMK A01 T10021031  RH  081%=      5-min Rain = 0
KFR1 200508Z 27001KT M00/M03 A3025 RMK A01 T10031032  RH  081%=      5-min Rain = 0
KFR1 200509Z 28001KT M00/M03 A3025 RMK A01 T10031033  RH  080%=      5-min Rain = 0
KFR1 200510Z 29001KT M00/M03 A3025 RMK A01 T10031033  RH  081%=      5-min Rain = 0
KFR1 200511Z 29001KT M00/M03 A3026 RMK A01 T10041033  RH  081%=      5-min Rain = 0
KFR1 200512Z 30001KT M00/M03 A3025 RMK A01 T10041033  RH  081%=      5-min Rain = 0
KFR1 200513Z 29001KT M00/M03 A3025 RMK A01 T10041032  RH  081%=      5-min Rain = 0
KFR1 200514Z 26001KT M00/M03 A3025 RMK A01 T10041032  RH  081%=      5-min Rain = 0
KFR1 200515Z 26002KT M00/M03 A3026 RMK A01 T10041032  RH  081%=      5-min Rain = 0
KFR1 200516Z 25002KT M00/M03 A3026 RMK A01 T10041031  RH  082%=      5-min Rain = 0
KFR1 200517Z 25001KT M00/M03 A3025 RMK A01 T10041031  RH  082%=      5-min Rain = 0
KFR1 200518Z 25001KT M01/M03 A3025 RMK A01 T10051032  RH  081%=      5-min Rain = 0
KFR1 200519Z 25000KT M01/M03 A3025 RMK A01 T10051033  RH  082%=      5-min Rain = 0
KFR1 200520Z 25000KT M01/M03 A3025 RMK A01 T10051033  RH  082%=      5-min Rain = 0
KFR1 200521Z 25001KT M01/M03 A3026 RMK A01 T10061034  RH  081%=      5-min Rain = 0
KFR1 200522Z 25001KT M01/M03 A3026 RMK A01 T10051034  RH  081%=      5-min Rain = 0
KFR1 200523Z 24001KT M01/M04 A3026 RMK A01 T10061035  RH  081%=      5-min Rain = 0
KFR1 200524Z 23001KT M01/M04 A3026 RMK A01 T10071036  RH  081%=      5-min Rain = 0
KFR1 200525Z 22001KT M01/M04 A3026 RMK A01 T10081037  RH  081%=      5-min Rain = 0
KFR1 200526Z 21001KT M01/M04 A3026 RMK A01 T10091037  RH  082%=      5-min Rain = 0
KFR1 200527Z 21001KT M01/M04 A3026 RMK A01 T10091037  RH  082%=      5-min Rain = 0
KFR1 200528Z 22002KT M01/M04 A3026 RMK A01 T10091036  RH  082%=      5-min Rain = 0
KFR1 200529Z 21003KT M01/M04 A3026 RMK A01 T10101037  RH  082%=      5-min Rain = 0
KFR1 200530Z 22002KT M01/M04 A3026 RMK A01 T10101037  RH  082%=      5-min Rain = 0
KFR1 200531Z 22002KT M01/M04 A3026 RMK A01 T10091037  RH  082%=      5-min Rain = 0
KFR1 200532Z 23002KT M01/M04 A3026 RMK A01 T10091037  RH  081%=      5-min Rain = 0
KFR1 200533Z 24001KT M01/M04 A3026 RMK A01 T10101038  RH  081%=      5-min Rain = 0
KFR1 200534Z 25001KT M01/M04 A3026 RMK A01 T10101038  RH  081%=      5-min Rain = 0
KFR1 200535Z 25000KT M01/M04 A3026 RMK A01 T10111039  RH  081%=      5-min Rain = 0
KFR1 200536Z 00000KT M01/M04 A3026 RMK A01 T10111038  RH  082%=      5-min Rain = 0
KFR1 200537Z 25000KT M01/M04 A3026 RMK A01 T10111037  RH  082%=      5-min Rain = 0
KFR1 200538Z 22001KT M01/M04 A3026 RMK A01 T10101037  RH  082%=      5-min Rain = 0
KFR1 200539Z 21001KT M01/M04 A3026 RMK A01 T10101038  RH  081%=      5-min Rain = 0
KFR1 200540Z 20001KT M01/M04 A3026 RMK A01 T10101038  RH  081%=      5-min Rain = 0
KFR1 200541Z 20000KT M01/M04 A3026 RMK A01 T10101038  RH  081%=      5-min Rain = 0
KFR1 200542Z 00000KT M01/M04 A3026 RMK A01 T10101039  RH  081%=      5-min Rain = 0
KFR1 200543Z 00000KT M01/M04 A3026 RMK A01 T10091038  RH  081%=      5-min Rain = 0
KFR1 200544Z 00000KT M01/M04 A3026 RMK A01 T10091037  RH  081%=      5-min Rain = 0
KFR1 200545Z 00000KT M01/M04 A3026 RMK A01 T10081037  RH  081%=      5-min Rain = 0
KFR1 200546Z 00000KT M01/M04 A3026 RMK A01 T10081037  RH  081%=      5-min Rain = 0
KFR1 200547Z 00000KT M01/M04 A3025 RMK A01 T10071037  RH  081%=      5-min Rain = 0
KFR1 200548Z 00000KT M01/M04 A3025 RMK A01 T10071037  RH  080%=      5-min Rain = 0
KFR1 200549Z 11000KT M01/M04 A3025 RMK A01 T10071036  RH  080%=      5-min Rain = 0
KFR1 200550Z 10001KT M01/M04 A3025 RMK A01 T10051035  RH  080%=      5-min Rain = 0
KFR1 200551Z 09001KT M00/M04 A3025 RMK A01 T10041035  RH  080%=      5-min Rain = 0
KFR1 200552Z 09001KT M00/M04 A3025 RMK A01 T10031035  RH  079%=      5-min Rain = 0
KFR1 200553Z 08001KT M00/M04 A3025 RMK A01 T10031035  RH  079%=      5-min Rain = 0
KFR1 200554Z 06001KT M00/M04 A3025 RMK A01 T10031035  RH  079%=      5-min Rain = 0
KFR1 200555Z 05001KT M00/M04 A3026 RMK A01 T10031036  RH  078%=      5-min Rain = 0
KFR1 200556Z 04001KT M00/M04 A3026 RMK A01 T10041038  RH  078%=      5-min Rain = 0
KFR1 200557Z 07001KT M01/M04 A3026 RMK A01 T10051038  RH  078%=      5-min Rain = 0
KFR1 200558Z 07001KT M01/M04 A3026 RMK A01 T10061038  RH  079%=      5-min Rain = 0
KFR1 200559Z 08000KT M01/M04 A3026 RMK A01 T10061037  RH  079%=      5-min Rain = 0

Page generated in 0.0357 seconds.